<?xml version='1.0' encoding='UTF-8'?><gpx version="1.1" creator="JPX - https://github.com/jenetics/jpx" xmlns="http://www.topografix.com/GPX/1/1"><trk><trkseg><trkpt lat="45.4089356" lon="10.5391638"><ele>129.0</ele><time>2026-04-08T09:04:36.794Z</time></trkpt><trkpt lat="45.4088979" lon="10.5390876"><ele>129.0</ele><time>2026-04-08T09:05:11.45Z</time></trkpt><trkpt lat="45.4088632" lon="10.5389628"><ele>129.0</ele><time>2026-04-08T09:05:17.445Z</time></trkpt><trkpt lat="45.4088189" lon="10.5388217"><ele>129.0</ele><time>2026-04-08T09:05:19.45Z</time></trkpt><trkpt lat="45.408811" lon="10.5386607"><ele>129.0</ele><time>2026-04-08T09:05:21.452Z</time></trkpt><trkpt lat="45.4088115" lon="10.5385108"><ele>127.0</ele><time>2026-04-08T09:05:23.453Z</time></trkpt><trkpt lat="45.4088044" lon="10.5383653"><ele>125.0</ele><time>2026-04-08T09:05:25.444Z</time></trkpt><trkpt lat="45.4087995" lon="10.5382169"><ele>123.0</ele><time>2026-04-08T09:05:27.446Z</time></trkpt><trkpt lat="45.4087872" lon="10.5380653"><ele>121.0</ele><time>2026-04-08T09:05:29.446Z</time></trkpt><trkpt lat="45.4087779" lon="10.5379119"><ele>119.0</ele><time>2026-04-08T09:05:31.457Z</time></trkpt><trkpt lat="45.408766" lon="10.5377604"><ele>118.49999999999999</ele><time>2026-04-08T09:05:33.455Z</time></trkpt><trkpt lat="45.4087611" lon="10.5376186"><ele>118.0</ele><time>2026-04-08T09:05:35.454Z</time></trkpt><trkpt lat="45.40877" lon="10.5374817"><ele>117.5</ele><time>2026-04-08T09:05:37.45Z</time></trkpt><trkpt lat="45.4087867" lon="10.5373433"><ele>117.0</ele><time>2026-04-08T09:05:39.453Z</time></trkpt><trkpt lat="45.4087733" lon="10.5372367"><ele>116.49999999999999</ele><time>2026-04-08T09:05:41.457Z</time></trkpt><trkpt lat="45.4086983" lon="10.537215"><ele>116.0</ele><time>2026-04-08T09:05:43.454Z</time></trkpt><trkpt lat="45.4086117" lon="10.5372617"><ele>116.0</ele><time>2026-04-08T09:05:45.455Z</time></trkpt><trkpt lat="45.4085233" lon="10.5373233"><ele>116.0</ele><time>2026-04-08T09:05:47.447Z</time></trkpt><trkpt lat="45.40843" lon="10.53737"><ele>116.0</ele><time>2026-04-08T09:05:49.45Z</time></trkpt><trkpt lat="45.4083367" lon="10.537405"><ele>116.0</ele><time>2026-04-08T09:05:51.455Z</time></trkpt><trkpt lat="45.4082433" lon="10.5374683"><ele>116.0</ele><time>2026-04-08T09:05:53.447Z</time></trkpt><trkpt lat="45.40815" lon="10.5375283"><ele>116.0</ele><time>2026-04-08T09:05:55.448Z</time></trkpt><trkpt lat="45.408055" lon="10.5375883"><ele>116.0</ele><time>2026-04-08T09:05:57.455Z</time></trkpt><trkpt lat="45.40796" lon="10.5376467"><ele>116.0</ele><time>2026-04-08T09:05:59.456Z</time></trkpt><trkpt lat="45.40787" lon="10.537695"><ele>116.0</ele><time>2026-04-08T09:06:01.457Z</time></trkpt><trkpt lat="45.4077833" lon="10.5377417"><ele>116.0</ele><time>2026-04-08T09:06:03.455Z</time></trkpt><trkpt lat="45.4077067" lon="10.537785"><ele>115.6</ele><time>2026-04-08T09:06:05.454Z</time></trkpt><trkpt lat="45.40763" lon="10.5378017"><ele>115.19999999999999</ele><time>2026-04-08T09:06:07.457Z</time></trkpt><trkpt lat="45.4075583" lon="10.537745"><ele>114.80000000000001</ele><time>2026-04-08T09:06:09.452Z</time></trkpt><trkpt lat="45.4075067" lon="10.53764"><ele>114.4</ele><time>2026-04-08T09:06:11.454Z</time></trkpt><trkpt lat="45.4074733" lon="10.5375067"><ele>114.0</ele><time>2026-04-08T09:06:13.45Z</time></trkpt><trkpt lat="45.407435" lon="10.5373683"><ele>114.0</ele><time>2026-04-08T09:06:15.451Z</time></trkpt><trkpt lat="45.4074" lon="10.5372217"><ele>114.0</ele><time>2026-04-08T09:06:17.452Z</time></trkpt><trkpt lat="45.40736" lon="10.5370783"><ele>114.0</ele><time>2026-04-08T09:06:19.456Z</time></trkpt><trkpt lat="45.4073267" lon="10.536935"><ele>114.0</ele><time>2026-04-08T09:06:21.456Z</time></trkpt><trkpt lat="45.4073017" lon="10.5367967"><ele>114.0</ele><time>2026-04-08T09:06:23.449Z</time></trkpt><trkpt lat="45.4072617" lon="10.53666"><ele>113.75</ele><time>2026-04-08T09:06:25.455Z</time></trkpt><trkpt lat="45.40722" lon="10.53652"><ele>113.5</ele><time>2026-04-08T09:06:27.449Z</time></trkpt><trkpt lat="45.4071783" lon="10.536375"><ele>113.25</ele><time>2026-04-08T09:06:29.457Z</time></trkpt><trkpt lat="45.40713" lon="10.536225"><ele>113.0</ele><time>2026-04-08T09:06:31.455Z</time></trkpt><trkpt lat="45.4070833" lon="10.5360717"><ele>112.25</ele><time>2026-04-08T09:06:33.449Z</time></trkpt><trkpt lat="45.40704" lon="10.5359133"><ele>111.5</ele><time>2026-04-08T09:06:35.456Z</time></trkpt><trkpt lat="45.4069983" lon="10.5357583"><ele>110.75</ele><time>2026-04-08T09:06:37.455Z</time></trkpt><trkpt lat="45.4069567" lon="10.5356033"><ele>110.0</ele><time>2026-04-08T09:06:39.455Z</time></trkpt><trkpt lat="45.406915" lon="10.53545"><ele>110.0</ele><time>2026-04-08T09:06:41.457Z</time></trkpt><trkpt lat="45.4068783" lon="10.5353"><ele>110.0</ele><time>2026-04-08T09:06:43.455Z</time></trkpt><trkpt lat="45.4068433" lon="10.5351567"><ele>110.0</ele><time>2026-04-08T09:06:45.452Z</time></trkpt><trkpt lat="45.4068083" lon="10.5350283"><ele>110.0</ele><time>2026-04-08T09:06:47.446Z</time></trkpt><trkpt lat="45.406775" lon="10.5349117"><ele>110.0</ele><time>2026-04-08T09:06:49.454Z</time></trkpt><trkpt lat="45.406725" lon="10.534835"><ele>110.0</ele><time>2026-04-08T09:06:51.455Z</time></trkpt><trkpt lat="45.406655" lon="10.5348517"><ele>110.0</ele><time>2026-04-08T09:06:53.452Z</time></trkpt><trkpt lat="45.4065883" lon="10.5349383"><ele>110.0</ele><time>2026-04-08T09:06:55.456Z</time></trkpt><trkpt lat="45.4065133" lon="10.5350483"><ele>110.0</ele><time>2026-04-08T09:06:57.455Z</time></trkpt><trkpt lat="45.4064267" lon="10.5351683"><ele>110.0</ele><time>2026-04-08T09:06:59.451Z</time></trkpt><trkpt lat="45.4063367" lon="10.5352783"><ele>110.4</ele><time>2026-04-08T09:07:01.455Z</time></trkpt><trkpt lat="45.4062267" lon="10.5352967"><ele>110.8</ele><time>2026-04-08T09:07:03.449Z</time></trkpt><trkpt lat="45.4061233" lon="10.5352533"><ele>111.19999999999999</ele><time>2026-04-08T09:07:05.455Z</time></trkpt><trkpt lat="45.4060183" lon="10.535205"><ele>111.6</ele><time>2026-04-08T09:07:07.457Z</time></trkpt><trkpt lat="45.405925" lon="10.5351417"><ele>112.0</ele><time>2026-04-08T09:07:09.453Z</time></trkpt><trkpt lat="45.4058417" lon="10.5350717"><ele>112.00000000000001</ele><time>2026-04-08T09:07:11.456Z</time></trkpt><trkpt lat="45.40577" lon="10.535005"><ele>112.0</ele><time>2026-04-08T09:07:13.454Z</time></trkpt><trkpt lat="45.405695" lon="10.534985"><ele>112.0</ele><time>2026-04-08T09:07:15.457Z</time></trkpt><trkpt lat="45.40561" lon="10.5350017"><ele>112.0</ele><time>2026-04-08T09:07:17.455Z</time></trkpt><trkpt lat="45.4055233" lon="10.5349717"><ele>112.00000000000001</ele><time>2026-04-08T09:07:19.454Z</time></trkpt><trkpt lat="45.405435" lon="10.5349283"><ele>112.0</ele><time>2026-04-08T09:07:21.452Z</time></trkpt><trkpt lat="45.4053433" lon="10.5348867"><ele>112.19999999999999</ele><time>2026-04-08T09:07:23.454Z</time></trkpt><trkpt lat="45.405245" lon="10.53484"><ele>112.39999999999999</ele><time>2026-04-08T09:07:25.449Z</time></trkpt><trkpt lat="45.4051433" lon="10.5347917"><ele>112.60000000000001</ele><time>2026-04-08T09:07:27.455Z</time></trkpt><trkpt lat="45.4050417" lon="10.53476"><ele>112.80000000000001</ele><time>2026-04-08T09:07:29.457Z</time></trkpt><trkpt lat="45.4049467" lon="10.53471"><ele>113.0</ele><time>2026-04-08T09:07:31.447Z</time></trkpt><trkpt lat="45.40486" lon="10.5346633"><ele>113.0</ele><time>2026-04-08T09:07:33.457Z</time></trkpt><trkpt lat="45.4047733" lon="10.53463"><ele>113.00000000000001</ele><time>2026-04-08T09:07:35.454Z</time></trkpt><trkpt lat="45.4046867" lon="10.5345967"><ele>113.00000000000001</ele><time>2026-04-08T09:07:37.454Z</time></trkpt><trkpt lat="45.4045967" lon="10.5345583"><ele>113.0</ele><time>2026-04-08T09:07:39.449Z</time></trkpt><trkpt lat="45.4045017" lon="10.5345183"><ele>113.0</ele><time>2026-04-08T09:07:41.443Z</time></trkpt><trkpt lat="45.4044083" lon="10.5344783"><ele>114.0</ele><time>2026-04-08T09:07:43.445Z</time></trkpt><trkpt lat="45.4043183" lon="10.5344383"><ele>115.00000000000001</ele><time>2026-04-08T09:07:45.445Z</time></trkpt><trkpt lat="45.4042283" lon="10.5344"><ele>116.00000000000001</ele><time>2026-04-08T09:07:47.447Z</time></trkpt><trkpt lat="45.4041383" lon="10.5343617"><ele>117.0</ele><time>2026-04-08T09:07:49.446Z</time></trkpt><trkpt lat="45.40405" lon="10.5343167"><ele>118.0</ele><time>2026-04-08T09:07:51.447Z</time></trkpt><trkpt lat="45.403965" lon="10.5342783"><ele>118.00000000000001</ele><time>2026-04-08T09:07:53.445Z</time></trkpt><trkpt lat="45.4038817" lon="10.5342417"><ele>118.0</ele><time>2026-04-08T09:07:55.456Z</time></trkpt><trkpt lat="45.4038033" lon="10.5342017"><ele>118.0</ele><time>2026-04-08T09:07:57.45Z</time></trkpt><trkpt lat="45.4037267" lon="10.5341617"><ele>118.0</ele><time>2026-04-08T09:07:59.456Z</time></trkpt><trkpt lat="45.4036467" lon="10.5341233"><ele>118.00000000000001</ele><time>2026-04-08T09:08:01.452Z</time></trkpt><trkpt lat="45.403565" lon="10.5340933"><ele>118.0</ele><time>2026-04-08T09:08:03.448Z</time></trkpt><trkpt lat="45.403485" lon="10.5340633"><ele>118.42857142857142</ele><time>2026-04-08T09:08:05.456Z</time></trkpt><trkpt lat="45.4034117" lon="10.5340417"><ele>118.85714285714286</ele><time>2026-04-08T09:08:07.452Z</time></trkpt><trkpt lat="45.403345" lon="10.5339983"><ele>119.28571428571428</ele><time>2026-04-08T09:08:09.448Z</time></trkpt><trkpt lat="45.4032883" lon="10.5339333"><ele>119.71428571428571</ele><time>2026-04-08T09:08:11.452Z</time></trkpt><trkpt lat="45.4032283" lon="10.5338717"><ele>120.14285714285714</ele><time>2026-04-08T09:08:13.454Z</time></trkpt><trkpt lat="45.4031733" lon="10.5337983"><ele>120.57142857142857</ele><time>2026-04-08T09:08:15.454Z</time></trkpt><trkpt lat="45.40312" lon="10.5337283"><ele>121.0</ele><time>2026-04-08T09:08:17.454Z</time></trkpt><trkpt lat="45.40308" lon="10.5336567"><ele>121.28571428571428</ele><time>2026-04-08T09:08:19.449Z</time></trkpt><trkpt lat="45.4030233" lon="10.5335633"><ele>121.57142857142856</ele><time>2026-04-08T09:08:22.451Z</time></trkpt><trkpt lat="45.402975" lon="10.5335033"><ele>121.85714285714286</ele><time>2026-04-08T09:08:24.456Z</time></trkpt><trkpt lat="45.40292" lon="10.5334383"><ele>122.14285714285714</ele><time>2026-04-08T09:08:26.451Z</time></trkpt><trkpt lat="45.4028683" lon="10.5333667"><ele>122.42857142857143</ele><time>2026-04-08T09:08:28.447Z</time></trkpt><trkpt lat="45.4028183" lon="10.5332883"><ele>122.71428571428572</ele><time>2026-04-08T09:08:30.453Z</time></trkpt><trkpt lat="45.4027683" lon="10.5332017"><ele>123.00000000000001</ele><time>2026-04-08T09:08:32.456Z</time></trkpt><trkpt lat="45.4027233" lon="10.5331117"><ele>123.14285714285717</ele><time>2026-04-08T09:08:34.453Z</time></trkpt><trkpt lat="45.402675" lon="10.5330267"><ele>123.28571428571429</ele><time>2026-04-08T09:08:36.453Z</time></trkpt><trkpt lat="45.4026217" lon="10.5329517"><ele>123.42857142857144</ele><time>2026-04-08T09:08:38.458Z</time></trkpt><trkpt lat="45.40257" lon="10.532875"><ele>123.57142857142858</ele><time>2026-04-08T09:08:40.451Z</time></trkpt><trkpt lat="45.4025133" lon="10.5328117"><ele>123.71428571428572</ele><time>2026-04-08T09:08:42.447Z</time></trkpt><trkpt lat="45.40245" lon="10.5327767"><ele>123.85714285714286</ele><time>2026-04-08T09:08:44.453Z</time></trkpt><trkpt lat="45.4023817" lon="10.5327683"><ele>124.0</ele><time>2026-04-08T09:08:46.454Z</time></trkpt><trkpt lat="45.4022917" lon="10.532755"><ele>124.33333333333334</ele><time>2026-04-08T09:08:48.447Z</time></trkpt><trkpt lat="45.402205" lon="10.5327333"><ele>124.66666666666667</ele><time>2026-04-08T09:08:50.452Z</time></trkpt><trkpt lat="45.40212" lon="10.532725"><ele>125.0</ele><time>2026-04-08T09:08:52.447Z</time></trkpt><trkpt lat="45.402035" lon="10.53269"><ele>125.33333333333334</ele><time>2026-04-08T09:08:54.453Z</time></trkpt><trkpt lat="45.4019517" lon="10.532655"><ele>125.66666666666667</ele><time>2026-04-08T09:08:56.443Z</time></trkpt><trkpt lat="45.4018683" lon="10.5326133"><ele>126.0</ele><time>2026-04-08T09:08:58.454Z</time></trkpt><trkpt lat="45.40179" lon="10.5325617"><ele>126.16666666666667</ele><time>2026-04-08T09:09:00.446Z</time></trkpt><trkpt lat="45.40172" lon="10.5325"><ele>126.33333333333334</ele><time>2026-04-08T09:09:02.446Z</time></trkpt><trkpt lat="45.4016483" lon="10.5324483"><ele>126.5</ele><time>2026-04-08T09:09:04.452Z</time></trkpt><trkpt lat="45.4015833" lon="10.5324"><ele>126.66666666666667</ele><time>2026-04-08T09:09:06.455Z</time></trkpt><trkpt lat="45.4015167" lon="10.53235"><ele>126.83333333333334</ele><time>2026-04-08T09:09:08.449Z</time></trkpt><trkpt lat="45.4014483" lon="10.5323"><ele>127.0</ele><time>2026-04-08T09:09:10.448Z</time></trkpt><trkpt lat="45.4013833" lon="10.5322433"><ele>127.16666666666667</ele><time>2026-04-08T09:09:12.445Z</time></trkpt><trkpt lat="45.4013217" lon="10.5321767"><ele>127.33333333333334</ele><time>2026-04-08T09:09:14.449Z</time></trkpt><trkpt lat="45.4012667" lon="10.5321133"><ele>127.5</ele><time>2026-04-08T09:09:16.45Z</time></trkpt><trkpt lat="45.4012117" lon="10.53204"><ele>127.66666666666666</ele><time>2026-04-08T09:09:18.449Z</time></trkpt><trkpt lat="45.4011633" lon="10.53195"><ele>127.83333333333333</ele><time>2026-04-08T09:09:20.447Z</time></trkpt><trkpt lat="45.4011267" lon="10.531845"><ele>128.0</ele><time>2026-04-08T09:09:22.454Z</time></trkpt><trkpt lat="45.4011067" lon="10.531735"><ele>128.5</ele><time>2026-04-08T09:09:24.445Z</time></trkpt><trkpt lat="45.4011" lon="10.531625"><ele>129.0</ele><time>2026-04-08T09:09:26.45Z</time></trkpt><trkpt lat="45.4010983" lon="10.53152"><ele>129.5</ele><time>2026-04-08T09:09:28.453Z</time></trkpt><trkpt lat="45.4010933" lon="10.53141"><ele>130.0</ele><time>2026-04-08T09:09:30.454Z</time></trkpt><trkpt lat="45.4010967" lon="10.5312933"><ele>130.5</ele><time>2026-04-08T09:09:32.443Z</time></trkpt><trkpt lat="45.4010917" lon="10.5311767"><ele>131.0</ele><time>2026-04-08T09:09:34.452Z</time></trkpt><trkpt lat="45.401075" lon="10.531065"><ele>131.5</ele><time>2026-04-08T09:09:36.449Z</time></trkpt><trkpt lat="45.4010517" lon="10.530955"><ele>132.0</ele><time>2026-04-08T09:09:38.449Z</time></trkpt><trkpt lat="45.4010267" lon="10.5308567"><ele>132.5</ele><time>2026-04-08T09:09:40.453Z</time></trkpt><trkpt lat="45.4010083" lon="10.5307617"><ele>133.0</ele><time>2026-04-08T09:09:42.449Z</time></trkpt><trkpt lat="45.400985" lon="10.5306567"><ele>133.5</ele><time>2026-04-08T09:09:44.446Z</time></trkpt><trkpt lat="45.4009567" lon="10.530555"><ele>134.0</ele><time>2026-04-08T09:09:46.447Z</time></trkpt><trkpt lat="45.400925" lon="10.5304517"><ele>134.16666666666666</ele><time>2026-04-08T09:09:48.447Z</time></trkpt><trkpt lat="45.40089" lon="10.5303417"><ele>134.33333333333331</ele><time>2026-04-08T09:09:50.448Z</time></trkpt><trkpt lat="45.4008533" lon="10.5302267"><ele>134.5</ele><time>2026-04-08T09:09:52.448Z</time></trkpt><trkpt lat="45.4008233" lon="10.5301067"><ele>134.66666666666666</ele><time>2026-04-08T09:09:54.45Z</time></trkpt><trkpt lat="45.4007967" lon="10.5299917"><ele>134.83333333333334</ele><time>2026-04-08T09:09:56.447Z</time></trkpt><trkpt lat="45.4007683" lon="10.5298867"><ele>135.0</ele><time>2026-04-08T09:09:58.44Z</time></trkpt><trkpt lat="45.4007217" lon="10.52982"><ele>135.0</ele><time>2026-04-08T09:10:00.447Z</time></trkpt><trkpt lat="45.40064" lon="10.5298183"><ele>135.0</ele><time>2026-04-08T09:10:02.446Z</time></trkpt><trkpt lat="45.4005567" lon="10.5298783"><ele>135.0</ele><time>2026-04-08T09:10:04.449Z</time></trkpt><trkpt lat="45.4004767" lon="10.5299533"><ele>135.0</ele><time>2026-04-08T09:10:06.451Z</time></trkpt><trkpt lat="45.4003983" lon="10.530035"><ele>135.0</ele><time>2026-04-08T09:10:08.446Z</time></trkpt><trkpt lat="45.4003217" lon="10.530115"><ele>135.2</ele><time>2026-04-08T09:10:10.454Z</time></trkpt><trkpt lat="45.400245" lon="10.530195"><ele>135.4</ele><time>2026-04-08T09:10:12.455Z</time></trkpt><trkpt lat="45.4001617" lon="10.5302717"><ele>135.6</ele><time>2026-04-08T09:10:14.457Z</time></trkpt><trkpt lat="45.40008" lon="10.5303483"><ele>135.8</ele><time>2026-04-08T09:10:16.455Z</time></trkpt><trkpt lat="45.4000033" lon="10.5304167"><ele>136.0</ele><time>2026-04-08T09:10:18.449Z</time></trkpt><trkpt lat="45.3999283" lon="10.53048"><ele>136.0</ele><time>2026-04-08T09:10:20.456Z</time></trkpt><trkpt lat="45.39985" lon="10.530545"><ele>136.0</ele><time>2026-04-08T09:10:22.453Z</time></trkpt><trkpt lat="45.3997667" lon="10.5306333"><ele>136.0</ele><time>2026-04-08T09:10:24.448Z</time></trkpt><trkpt lat="45.39968" lon="10.53073"><ele>136.0</ele><time>2026-04-08T09:10:26.453Z</time></trkpt><trkpt lat="45.399595" lon="10.530815"><ele>136.0</ele><time>2026-04-08T09:10:28.455Z</time></trkpt><trkpt lat="45.3995117" lon="10.5309117"><ele>135.0</ele><time>2026-04-08T09:10:30.455Z</time></trkpt><trkpt lat="45.3994267" lon="10.5310167"><ele>134.0</ele><time>2026-04-08T09:10:32.456Z</time></trkpt><trkpt lat="45.3993533" lon="10.5311433"><ele>133.0</ele><time>2026-04-08T09:10:34.456Z</time></trkpt><trkpt lat="45.39929" lon="10.5312833"><ele>132.0</ele><time>2026-04-08T09:10:36.457Z</time></trkpt><trkpt lat="45.3992267" lon="10.5314167"><ele>132.0</ele><time>2026-04-08T09:10:38.453Z</time></trkpt><trkpt lat="45.399165" lon="10.53156"><ele>132.0</ele><time>2026-04-08T09:10:40.448Z</time></trkpt><trkpt lat="45.3990917" lon="10.531705"><ele>132.0</ele><time>2026-04-08T09:10:42.447Z</time></trkpt><trkpt lat="45.3990133" lon="10.531835"><ele>132.0</ele><time>2026-04-08T09:10:44.455Z</time></trkpt><trkpt lat="45.39893" lon="10.5319533"><ele>131.4</ele><time>2026-04-08T09:10:46.454Z</time></trkpt><trkpt lat="45.3988433" lon="10.53207"><ele>130.79999999999998</ele><time>2026-04-08T09:10:48.453Z</time></trkpt><trkpt lat="45.3988017" lon="10.5321383"><ele>130.2</ele><time>2026-04-08T09:10:49.452Z</time></trkpt><trkpt lat="45.3987167" lon="10.53225"><ele>129.6</ele><time>2026-04-08T09:10:51.458Z</time></trkpt><trkpt lat="45.3986233" lon="10.532365"><ele>129.0</ele><time>2026-04-08T09:10:53.453Z</time></trkpt><trkpt lat="45.3985383" lon="10.5324783"><ele>128.83333333333334</ele><time>2026-04-08T09:10:55.456Z</time></trkpt><trkpt lat="45.3984533" lon="10.5325833"><ele>128.66666666666666</ele><time>2026-04-08T09:10:57.455Z</time></trkpt><trkpt lat="45.3984067" lon="10.5326867"><ele>128.5</ele><time>2026-04-08T09:10:59.455Z</time></trkpt><trkpt lat="45.3984033" lon="10.5327983"><ele>128.33333333333331</ele><time>2026-04-08T09:11:01.453Z</time></trkpt><trkpt lat="45.3984317" lon="10.5329033"><ele>128.16666666666666</ele><time>2026-04-08T09:11:03.456Z</time></trkpt><trkpt lat="45.3984583" lon="10.53303"><ele>128.0</ele><time>2026-04-08T09:11:05.453Z</time></trkpt><trkpt lat="45.398465" lon="10.5331767"><ele>128.0</ele><time>2026-04-08T09:11:07.454Z</time></trkpt><trkpt lat="45.3984483" lon="10.5333267"><ele>128.0</ele><time>2026-04-08T09:11:09.45Z</time></trkpt><trkpt lat="45.3984217" lon="10.53348"><ele>128.0</ele><time>2026-04-08T09:11:11.454Z</time></trkpt><trkpt lat="45.3984067" lon="10.5336217"><ele>128.0</ele><time>2026-04-08T09:11:13.456Z</time></trkpt><trkpt lat="45.3983933" lon="10.5337567"><ele>128.0</ele><time>2026-04-08T09:11:15.451Z</time></trkpt><trkpt lat="45.39837" lon="10.5339067"><ele>128.6</ele><time>2026-04-08T09:11:17.451Z</time></trkpt><trkpt lat="45.3983433" lon="10.5340567"><ele>129.20000000000002</ele><time>2026-04-08T09:11:19.453Z</time></trkpt><trkpt lat="45.3983117" lon="10.5342117"><ele>129.8</ele><time>2026-04-08T09:11:21.451Z</time></trkpt><trkpt lat="45.3982883" lon="10.5343517"><ele>130.4</ele><time>2026-04-08T09:11:23.455Z</time></trkpt><trkpt lat="45.39827" lon="10.5344867"><ele>131.0</ele><time>2026-04-08T09:11:25.45Z</time></trkpt><trkpt lat="45.3982483" lon="10.5346267"><ele>131.8</ele><time>2026-04-08T09:11:27.453Z</time></trkpt><trkpt lat="45.3982283" lon="10.5347667"><ele>132.6</ele><time>2026-04-08T09:11:29.454Z</time></trkpt><trkpt lat="45.3982167" lon="10.534905"><ele>133.4</ele><time>2026-04-08T09:11:31.455Z</time></trkpt><trkpt lat="45.3981983" lon="10.5350333"><ele>134.2</ele><time>2026-04-08T09:11:33.454Z</time></trkpt><trkpt lat="45.3981867" lon="10.53516"><ele>135.0</ele><time>2026-04-08T09:11:35.449Z</time></trkpt><trkpt lat="45.398175" lon="10.5352883"><ele>135.5</ele><time>2026-04-08T09:11:37.45Z</time></trkpt><trkpt lat="45.398165" lon="10.5354083"><ele>136.0</ele><time>2026-04-08T09:11:39.447Z</time></trkpt><trkpt lat="45.3981567" lon="10.5355217"><ele>136.5</ele><time>2026-04-08T09:11:41.455Z</time></trkpt><trkpt lat="45.3981333" lon="10.5356417"><ele>137.0</ele><time>2026-04-08T09:11:43.45Z</time></trkpt><trkpt lat="45.398105" lon="10.5357567"><ele>137.5</ele><time>2026-04-08T09:11:45.443Z</time></trkpt><trkpt lat="45.39807" lon="10.5358533"><ele>138.0</ele><time>2026-04-08T09:11:47.453Z</time></trkpt><trkpt lat="45.3980367" lon="10.5359333"><ele>137.6</ele><time>2026-04-08T09:11:49.45Z</time></trkpt><trkpt lat="45.3979817" lon="10.5360083"><ele>137.20000000000002</ele><time>2026-04-08T09:11:51.454Z</time></trkpt><trkpt lat="45.3979217" lon="10.536085"><ele>136.8</ele><time>2026-04-08T09:11:53.455Z</time></trkpt><trkpt lat="45.39785" lon="10.5361717"><ele>136.4</ele><time>2026-04-08T09:11:55.449Z</time></trkpt><trkpt lat="45.39778" lon="10.536265"><ele>136.0</ele><time>2026-04-08T09:11:57.454Z</time></trkpt><trkpt lat="45.397705" lon="10.5363667"><ele>136.8</ele><time>2026-04-08T09:11:59.453Z</time></trkpt><trkpt lat="45.3976283" lon="10.5364767"><ele>137.6</ele><time>2026-04-08T09:12:01.456Z</time></trkpt><trkpt lat="45.3975583" lon="10.5366"><ele>138.4</ele><time>2026-04-08T09:12:03.453Z</time></trkpt><trkpt lat="45.3974717" lon="10.536705"><ele>139.2</ele><time>2026-04-08T09:12:05.449Z</time></trkpt><trkpt lat="45.3973967" lon="10.5368233"><ele>140.0</ele><time>2026-04-08T09:12:07.456Z</time></trkpt><trkpt lat="45.3973017" lon="10.5369067"><ele>140.0</ele><time>2026-04-08T09:12:09.452Z</time></trkpt><trkpt lat="45.39719" lon="10.5369733"><ele>140.0</ele><time>2026-04-08T09:12:11.456Z</time></trkpt><trkpt lat="45.397125" lon="10.5370017"><ele>140.0</ele><time>2026-04-08T09:12:12.453Z</time></trkpt><trkpt lat="45.3970567" lon="10.5370233"><ele>140.0</ele><time>2026-04-08T09:12:13.453Z</time></trkpt><trkpt lat="45.396985" lon="10.5370467"><ele>140.0</ele><time>2026-04-08T09:12:14.457Z</time></trkpt><trkpt lat="45.396915" lon="10.5370717"><ele>140.0</ele><time>2026-04-08T09:12:15.454Z</time></trkpt><trkpt lat="45.3968467" lon="10.537105"><ele>138.71428571428572</ele><time>2026-04-08T09:12:16.447Z</time></trkpt><trkpt lat="45.3967767" lon="10.5371317"><ele>137.42857142857144</ele><time>2026-04-08T09:12:17.453Z</time></trkpt><trkpt lat="45.396705" lon="10.5371583"><ele>136.14285714285714</ele><time>2026-04-08T09:12:18.45Z</time></trkpt><trkpt lat="45.3966317" lon="10.5371767"><ele>134.85714285714286</ele><time>2026-04-08T09:12:19.452Z</time></trkpt><trkpt lat="45.39656" lon="10.5371867"><ele>133.57142857142858</ele><time>2026-04-08T09:12:20.457Z</time></trkpt><trkpt lat="45.3964933" lon="10.5371833"><ele>132.28571428571428</ele><time>2026-04-08T09:12:21.455Z</time></trkpt><trkpt lat="45.3964317" lon="10.5371567"><ele>131.0</ele><time>2026-04-08T09:12:22.452Z</time></trkpt><trkpt lat="45.3963717" lon="10.5371183"><ele>130.85714285714286</ele><time>2026-04-08T09:12:23.455Z</time></trkpt><trkpt lat="45.3963117" lon="10.5370633"><ele>130.71428571428572</ele><time>2026-04-08T09:12:24.453Z</time></trkpt><trkpt lat="45.3962533" lon="10.5370117"><ele>130.57142857142858</ele><time>2026-04-08T09:12:25.457Z</time></trkpt><trkpt lat="45.396195" lon="10.536965"><ele>130.42857142857144</ele><time>2026-04-08T09:12:26.455Z</time></trkpt><trkpt lat="45.3961333" lon="10.536925"><ele>130.28571428571428</ele><time>2026-04-08T09:12:27.456Z</time></trkpt><trkpt lat="45.3960733" lon="10.5368833"><ele>130.14285714285717</ele><time>2026-04-08T09:12:28.454Z</time></trkpt><trkpt lat="45.396015" lon="10.5368433"><ele>130.0</ele><time>2026-04-08T09:12:29.449Z</time></trkpt><trkpt lat="45.395955" lon="10.5368017"><ele>130.00000000000003</ele><time>2026-04-08T09:12:30.454Z</time></trkpt><trkpt lat="45.3958933" lon="10.5367533"><ele>130.0</ele><time>2026-04-08T09:12:31.447Z</time></trkpt><trkpt lat="45.39583" lon="10.5366967"><ele>130.0</ele><time>2026-04-08T09:12:32.447Z</time></trkpt><trkpt lat="45.3957717" lon="10.536645"><ele>130.0</ele><time>2026-04-08T09:12:33.449Z</time></trkpt><trkpt lat="45.3957117" lon="10.5365917"><ele>130.0</ele><time>2026-04-08T09:12:34.455Z</time></trkpt><trkpt lat="45.3956533" lon="10.536535"><ele>130.00000000000003</ele><time>2026-04-08T09:12:35.456Z</time></trkpt><trkpt lat="45.3955983" lon="10.53648"><ele>130.0</ele><time>2026-04-08T09:12:36.453Z</time></trkpt><trkpt lat="45.3955467" lon="10.536425"><ele>130.6</ele><time>2026-04-08T09:12:37.45Z</time></trkpt><trkpt lat="45.3954483" lon="10.5363333"><ele>131.2</ele><time>2026-04-08T09:12:39.451Z</time></trkpt><trkpt lat="45.395345" lon="10.5363183"><ele>131.8</ele><time>2026-04-08T09:12:41.454Z</time></trkpt><trkpt lat="45.395245" lon="10.5363667"><ele>132.4</ele><time>2026-04-08T09:12:43.453Z</time></trkpt><trkpt lat="45.395145" lon="10.5364233"><ele>133.0</ele><time>2026-04-08T09:12:45.454Z</time></trkpt><trkpt lat="45.3950483" lon="10.5364917"><ele>133.0</ele><time>2026-04-08T09:12:47.457Z</time></trkpt><trkpt lat="45.3949467" lon="10.5365533"><ele>133.0</ele><time>2026-04-08T09:12:49.454Z</time></trkpt><trkpt lat="45.394845" lon="10.536615"><ele>133.0</ele><time>2026-04-08T09:12:51.454Z</time></trkpt><trkpt lat="45.3947533" lon="10.536675"><ele>133.0</ele><time>2026-04-08T09:12:53.456Z</time></trkpt><trkpt lat="45.39467" lon="10.536735"><ele>133.0</ele><time>2026-04-08T09:12:55.455Z</time></trkpt><trkpt lat="45.3946" lon="10.53679"><ele>132.8</ele><time>2026-04-08T09:12:57.449Z</time></trkpt><trkpt lat="45.3945233" lon="10.5368333"><ele>132.60000000000002</ele><time>2026-04-08T09:12:59.45Z</time></trkpt><trkpt lat="45.3944383" lon="10.5368933"><ele>132.39999999999998</ele><time>2026-04-08T09:13:01.457Z</time></trkpt><trkpt lat="45.39435" lon="10.5369533"><ele>132.2</ele><time>2026-04-08T09:13:03.453Z</time></trkpt><trkpt lat="45.3942667" lon="10.5370167"><ele>132.0</ele><time>2026-04-08T09:13:05.448Z</time></trkpt><trkpt lat="45.3941833" lon="10.5370733"><ele>132.2</ele><time>2026-04-08T09:13:07.449Z</time></trkpt><trkpt lat="45.3941" lon="10.53715"><ele>132.39999999999998</ele><time>2026-04-08T09:13:09.448Z</time></trkpt><trkpt lat="45.3940217" lon="10.5372317"><ele>132.60000000000002</ele><time>2026-04-08T09:13:11.445Z</time></trkpt><trkpt lat="45.3939367" lon="10.5373267"><ele>132.8</ele><time>2026-04-08T09:13:13.447Z</time></trkpt><trkpt lat="45.3938567" lon="10.5374167"><ele>133.0</ele><time>2026-04-08T09:13:15.445Z</time></trkpt><trkpt lat="45.3937617" lon="10.537505"><ele>133.0</ele><time>2026-04-08T09:13:17.448Z</time></trkpt><trkpt lat="45.393665" lon="10.5376033"><ele>133.0</ele><time>2026-04-08T09:13:19.455Z</time></trkpt><trkpt lat="45.3935667" lon="10.5376967"><ele>133.0</ele><time>2026-04-08T09:13:21.45Z</time></trkpt><trkpt lat="45.3934767" lon="10.53779"><ele>133.0</ele><time>2026-04-08T09:13:23.454Z</time></trkpt><trkpt lat="45.3933867" lon="10.5378933"><ele>133.20000000000002</ele><time>2026-04-08T09:13:25.457Z</time></trkpt><trkpt lat="45.3932967" lon="10.537995"><ele>133.4</ele><time>2026-04-08T09:13:27.454Z</time></trkpt><trkpt lat="45.3932217" lon="10.53809"><ele>133.60000000000002</ele><time>2026-04-08T09:13:29.455Z</time></trkpt><trkpt lat="45.3931533" lon="10.5381867"><ele>133.8</ele><time>2026-04-08T09:13:31.456Z</time></trkpt><trkpt lat="45.3930833" lon="10.5382983"><ele>134.0</ele><time>2026-04-08T09:13:33.45Z</time></trkpt><trkpt lat="45.39302" lon="10.5384067"><ele>134.2</ele><time>2026-04-08T09:13:35.455Z</time></trkpt><trkpt lat="45.39295" lon="10.538495"><ele>134.4</ele><time>2026-04-08T09:13:37.439Z</time></trkpt><trkpt lat="45.3928633" lon="10.5385567"><ele>134.6</ele><time>2026-04-08T09:13:39.445Z</time></trkpt><trkpt lat="45.3927633" lon="10.53858"><ele>134.8</ele><time>2026-04-08T09:13:41.449Z</time></trkpt><trkpt lat="45.392665" lon="10.5385933"><ele>135.0</ele><time>2026-04-08T09:13:43.45Z</time></trkpt><trkpt lat="45.3925617" lon="10.5386067"><ele>135.0</ele><time>2026-04-08T09:13:45.446Z</time></trkpt><trkpt lat="45.3924617" lon="10.5386117"><ele>135.0</ele><time>2026-04-08T09:13:47.446Z</time></trkpt><trkpt lat="45.3923617" lon="10.538605"><ele>135.0</ele><time>2026-04-08T09:13:49.446Z</time></trkpt><trkpt lat="45.392265" lon="10.5385917"><ele>135.0</ele><time>2026-04-08T09:13:51.454Z</time></trkpt><trkpt lat="45.39217" lon="10.5385567"><ele>135.0</ele><time>2026-04-08T09:13:53.455Z</time></trkpt><trkpt lat="45.3920867" lon="10.5385067"><ele>134.4</ele><time>2026-04-08T09:13:55.452Z</time></trkpt><trkpt lat="45.391995" lon="10.53847"><ele>133.8</ele><time>2026-04-08T09:13:57.455Z</time></trkpt><trkpt lat="45.391905" lon="10.5384267"><ele>133.2</ele><time>2026-04-08T09:13:59.448Z</time></trkpt><trkpt lat="45.3918217" lon="10.53836"><ele>132.6</ele><time>2026-04-08T09:14:01.456Z</time></trkpt><trkpt lat="45.3917367" lon="10.5383033"><ele>132.0</ele><time>2026-04-08T09:14:03.452Z</time></trkpt><trkpt lat="45.3916567" lon="10.53824"><ele>132.0</ele><time>2026-04-08T09:14:05.45Z</time></trkpt><trkpt lat="45.3915767" lon="10.538175"><ele>132.0</ele><time>2026-04-08T09:14:07.447Z</time></trkpt><trkpt lat="45.3915033" lon="10.53809"><ele>132.0</ele><time>2026-04-08T09:14:09.456Z</time></trkpt><trkpt lat="45.3914233" lon="10.5380233"><ele>132.0</ele><time>2026-04-08T09:14:11.455Z</time></trkpt><trkpt lat="45.3913383" lon="10.5379683"><ele>132.0</ele><time>2026-04-08T09:14:13.451Z</time></trkpt><trkpt lat="45.3912517" lon="10.5379183"><ele>131.6</ele><time>2026-04-08T09:14:15.453Z</time></trkpt><trkpt lat="45.3911483" lon="10.537875"><ele>131.2</ele><time>2026-04-08T09:14:17.456Z</time></trkpt><trkpt lat="45.3910367" lon="10.537825"><ele>130.8</ele><time>2026-04-08T09:14:19.456Z</time></trkpt><trkpt lat="45.39092" lon="10.53777"><ele>130.4</ele><time>2026-04-08T09:14:21.454Z</time></trkpt><trkpt lat="45.3908633" lon="10.537725"><ele>130.0</ele><time>2026-04-08T09:14:22.455Z</time></trkpt><trkpt lat="45.39081" lon="10.5376617"><ele>130.0</ele><time>2026-04-08T09:14:23.454Z</time></trkpt><trkpt lat="45.3907617" lon="10.53759"><ele>130.0</ele><time>2026-04-08T09:14:24.455Z</time></trkpt><trkpt lat="45.3907117" lon="10.5375083"><ele>130.0</ele><time>2026-04-08T09:14:25.456Z</time></trkpt><trkpt lat="45.3906633" lon="10.5374267"><ele>130.0</ele><time>2026-04-08T09:14:26.454Z</time></trkpt><trkpt lat="45.3906133" lon="10.537345"><ele>130.0</ele><time>2026-04-08T09:14:27.452Z</time></trkpt><trkpt lat="45.390565" lon="10.5372533"><ele>130.0</ele><time>2026-04-08T09:14:28.453Z</time></trkpt><trkpt lat="45.39052" lon="10.53717"><ele>130.0</ele><time>2026-04-08T09:14:29.453Z</time></trkpt><trkpt lat="45.3904467" lon="10.5370433"><ele>130.0</ele><time>2026-04-08T09:14:31.455Z</time></trkpt><trkpt lat="45.39037" lon="10.5370183"><ele>130.0</ele><time>2026-04-08T09:14:33.448Z</time></trkpt><trkpt lat="45.3903117" lon="10.5370967"><ele>130.0</ele><time>2026-04-08T09:14:35.449Z</time></trkpt><trkpt lat="45.3902733" lon="10.5371867"><ele>130.0</ele><time>2026-04-08T09:14:37.453Z</time></trkpt><trkpt lat="45.390325" lon="10.5372933"><ele>130.0</ele><time>2026-04-08T09:14:40.453Z</time></trkpt><trkpt lat="45.3904067" lon="10.537365"><ele>130.0</ele><time>2026-04-08T09:14:42.455Z</time></trkpt><trkpt lat="45.3904767" lon="10.5374317"><ele>130.0</ele><time>2026-04-08T09:14:44.454Z</time></trkpt><trkpt lat="45.3905467" lon="10.5375083"><ele>130.0</ele><time>2026-04-08T09:14:46.451Z</time></trkpt><trkpt lat="45.3906083" lon="10.5376017"><ele>130.0</ele><time>2026-04-08T09:14:48.449Z</time></trkpt><trkpt lat="45.3906617" lon="10.5376967"><ele>130.0</ele><time>2026-04-08T09:14:50.457Z</time></trkpt><trkpt lat="45.39067" lon="10.5377967"><ele>130.0</ele><time>2026-04-08T09:14:52.452Z</time></trkpt><trkpt lat="45.390615" lon="10.5378467"><ele>130.00000000000003</ele><time>2026-04-08T09:14:54.455Z</time></trkpt><trkpt lat="45.3905467" lon="10.5378317"><ele>130.0</ele><time>2026-04-08T09:14:56.454Z</time></trkpt><trkpt lat="45.3904567" lon="10.5378067"><ele>130.0</ele><time>2026-04-08T09:14:59.455Z</time></trkpt><trkpt lat="45.3903933" lon="10.53779"><ele>130.0</ele><time>2026-04-08T09:15:01.453Z</time></trkpt><trkpt lat="45.39033" lon="10.5377717"><ele>130.0</ele><time>2026-04-08T09:15:03.448Z</time></trkpt><trkpt lat="45.390265" lon="10.5377567"><ele>130.00000000000003</ele><time>2026-04-08T09:15:05.452Z</time></trkpt><trkpt lat="45.3902017" lon="10.53775"><ele>130.0</ele><time>2026-04-08T09:15:07.453Z</time></trkpt><trkpt lat="45.3901383" lon="10.537745"><ele>130.66666666666669</ele><time>2026-04-08T09:15:09.454Z</time></trkpt><trkpt lat="45.3900467" lon="10.5377833"><ele>131.33333333333334</ele><time>2026-04-08T09:15:12.454Z</time></trkpt><trkpt lat="45.3899883" lon="10.53782"><ele>132.0</ele><time>2026-04-08T09:15:14.454Z</time></trkpt><trkpt lat="45.3899317" lon="10.53791"><ele>132.66666666666666</ele><time>2026-04-08T09:15:17.455Z</time></trkpt><trkpt lat="45.3898983" lon="10.5380083"><ele>133.33333333333331</ele><time>2026-04-08T09:15:20.456Z</time></trkpt><trkpt lat="45.3898683" lon="10.53812"><ele>134.0</ele><time>2026-04-08T09:15:23.453Z</time></trkpt><trkpt lat="45.3898483" lon="10.5382183"><ele>135.0</ele><time>2026-04-08T09:15:26.453Z</time></trkpt><trkpt lat="45.3898483" lon="10.53833"><ele>136.0</ele><time>2026-04-08T09:15:29.454Z</time></trkpt><trkpt lat="45.3898467" lon="10.5384483"><ele>137.0</ele><time>2026-04-08T09:15:32.452Z</time></trkpt><trkpt lat="45.3898367" lon="10.538555"><ele>138.0</ele><time>2026-04-08T09:15:34.449Z</time></trkpt><trkpt lat="45.3898317" lon="10.5386783"><ele>139.0</ele><time>2026-04-08T09:15:37.448Z</time></trkpt><trkpt lat="45.389765" lon="10.53875"><ele>140.0</ele><time>2026-04-08T09:15:40.454Z</time></trkpt><trkpt lat="45.3896817" lon="10.5387683"><ele>140.5</ele><time>2026-04-08T09:15:43.453Z</time></trkpt><trkpt lat="45.3896" lon="10.5387733"><ele>141.0</ele><time>2026-04-08T09:15:46.448Z</time></trkpt><trkpt lat="45.38951" lon="10.5387617"><ele>141.5</ele><time>2026-04-08T09:15:49.451Z</time></trkpt><trkpt lat="45.3894233" lon="10.538795"><ele>142.0</ele><time>2026-04-08T09:15:52.443Z</time></trkpt><trkpt lat="45.38935" lon="10.5388417"><ele>142.5</ele><time>2026-04-08T09:15:55.453Z</time></trkpt><trkpt lat="45.389285" lon="10.538895"><ele>143.0</ele><time>2026-04-08T09:15:58.446Z</time></trkpt><trkpt lat="45.3892183" lon="10.5389633"><ele>143.0</ele><time>2026-04-08T09:16:01.453Z</time></trkpt><trkpt lat="45.389175" lon="10.5390333"><ele>143.0</ele><time>2026-04-08T09:16:04.452Z</time></trkpt><trkpt lat="45.38917" lon="10.5391267"><ele>143.0</ele><time>2026-04-08T09:16:07.449Z</time></trkpt><trkpt lat="45.3891783" lon="10.5392383"><ele>143.0</ele><time>2026-04-08T09:16:10.444Z</time></trkpt><trkpt lat="45.3891867" lon="10.5393533"><ele>143.0</ele><time>2026-04-08T09:16:13.453Z</time></trkpt><trkpt lat="45.3891983" lon="10.5394717"><ele>143.0</ele><time>2026-04-08T09:16:16.448Z</time></trkpt><trkpt lat="45.389205" lon="10.5395917"><ele>143.66666666666666</ele><time>2026-04-08T09:16:19.445Z</time></trkpt><trkpt lat="45.3892167" lon="10.5397033"><ele>144.33333333333331</ele><time>2026-04-08T09:16:22.446Z</time></trkpt><trkpt lat="45.38923" lon="10.5398133"><ele>145.0</ele><time>2026-04-08T09:16:25.452Z</time></trkpt><trkpt lat="45.389245" lon="10.5399267"><ele>145.66666666666666</ele><time>2026-04-08T09:16:28.453Z</time></trkpt><trkpt lat="45.389255" lon="10.54004"><ele>146.33333333333334</ele><time>2026-04-08T09:16:31.445Z</time></trkpt><trkpt lat="45.3892683" lon="10.540145"><ele>147.0</ele><time>2026-04-08T09:16:34.444Z</time></trkpt><trkpt lat="45.3892217" lon="10.5402167"><ele>147.0</ele><time>2026-04-08T09:16:40.452Z</time></trkpt><trkpt lat="45.3891483" lon="10.5402733"><ele>147.0</ele><time>2026-04-08T09:16:43.445Z</time></trkpt><trkpt lat="45.3891167" lon="10.5404017"><ele>147.0</ele><time>2026-04-08T09:16:46.451Z</time></trkpt><trkpt lat="45.3891017" lon="10.5405017"><ele>147.0</ele><time>2026-04-08T09:16:48.454Z</time></trkpt><trkpt lat="45.3890767" lon="10.5405933"><ele>147.0</ele><time>2026-04-08T09:16:50.459Z</time></trkpt><trkpt lat="45.3890417" lon="10.5406883"><ele>147.0</ele><time>2026-04-08T09:16:52.452Z</time></trkpt><trkpt lat="45.389005" lon="10.5407817"><ele>147.0</ele><time>2026-04-08T09:16:54.446Z</time></trkpt><trkpt lat="45.3889867" lon="10.5408717"><ele>147.0</ele><time>2026-04-08T09:16:56.451Z</time></trkpt><trkpt lat="45.38896" lon="10.5410083"><ele>147.0</ele><time>2026-04-08T09:16:59.453Z</time></trkpt><trkpt lat="45.3889417" lon="10.5411017"><ele>147.0</ele><time>2026-04-08T09:17:01.443Z</time></trkpt><trkpt lat="45.3889267" lon="10.5412"><ele>147.0</ele><time>2026-04-08T09:17:03.444Z</time></trkpt><trkpt lat="45.3889" lon="10.541295"><ele>147.0</ele><time>2026-04-08T09:17:05.454Z</time></trkpt><trkpt lat="45.38888" lon="10.54139"><ele>147.0</ele><time>2026-04-08T09:17:07.444Z</time></trkpt><trkpt lat="45.38886" lon="10.541485"><ele>147.0</ele><time>2026-04-08T09:17:09.448Z</time></trkpt><trkpt lat="45.3888433" lon="10.541585"><ele>147.0</ele><time>2026-04-08T09:17:11.449Z</time></trkpt><trkpt lat="45.388835" lon="10.5416767"><ele>147.0</ele><time>2026-04-08T09:17:13.455Z</time></trkpt><trkpt lat="45.3888183" lon="10.5417933"><ele>147.0</ele><time>2026-04-08T09:17:16.454Z</time></trkpt><trkpt lat="45.3888133" lon="10.541915"><ele>147.0</ele><time>2026-04-08T09:17:19.445Z</time></trkpt><trkpt lat="45.3888183" lon="10.542025"><ele>147.0</ele><time>2026-04-08T09:17:22.451Z</time></trkpt><trkpt lat="45.3888417" lon="10.542165"><ele>147.57142857142858</ele><time>2026-04-08T09:17:25.451Z</time></trkpt><trkpt lat="45.388825" lon="10.542265"><ele>148.14285714285714</ele><time>2026-04-08T09:17:27.445Z</time></trkpt><trkpt lat="45.3887933" lon="10.5423567"><ele>148.71428571428572</ele><time>2026-04-08T09:17:29.453Z</time></trkpt><trkpt lat="45.3887583" lon="10.542445"><ele>149.28571428571428</ele><time>2026-04-08T09:17:31.445Z</time></trkpt><trkpt lat="45.3887267" lon="10.5425367"><ele>149.85714285714286</ele><time>2026-04-08T09:17:33.453Z</time></trkpt><trkpt lat="45.3886783" lon="10.54263"><ele>150.42857142857144</ele><time>2026-04-08T09:17:35.45Z</time></trkpt><trkpt lat="45.3886467" lon="10.5427167"><ele>151.0</ele><time>2026-04-08T09:17:37.449Z</time></trkpt><trkpt lat="45.3886133" lon="10.5428017"><ele>150.5</ele><time>2026-04-08T09:17:39.445Z</time></trkpt><trkpt lat="45.3885667" lon="10.5428917"><ele>150.0</ele><time>2026-04-08T09:17:41.449Z</time></trkpt><trkpt lat="45.3885283" lon="10.5429633"><ele>149.5</ele><time>2026-04-08T09:17:43.443Z</time></trkpt><trkpt lat="45.3884783" lon="10.5430533"><ele>149.0</ele><time>2026-04-08T09:17:45.45Z</time></trkpt><trkpt lat="45.3884283" lon="10.54314"><ele>148.5</ele><time>2026-04-08T09:17:47.454Z</time></trkpt><trkpt lat="45.388375" lon="10.5432117"><ele>148.0</ele><time>2026-04-08T09:17:49.447Z</time></trkpt><trkpt lat="45.3882967" lon="10.54329"><ele>148.0</ele><time>2026-04-08T09:17:52.452Z</time></trkpt><trkpt lat="45.3882217" lon="10.54339"><ele>148.0</ele><time>2026-04-08T09:17:55.445Z</time></trkpt><trkpt lat="45.388125" lon="10.54345"><ele>148.0</ele><time>2026-04-08T09:17:57.447Z</time></trkpt><trkpt lat="45.3880333" lon="10.5435"><ele>148.0</ele><time>2026-04-08T09:17:59.451Z</time></trkpt><trkpt lat="45.3879467" lon="10.5435467"><ele>148.0</ele><time>2026-04-08T09:18:01.451Z</time></trkpt><trkpt lat="45.387875" lon="10.543605"><ele>146.57142857142858</ele><time>2026-04-08T09:18:03.445Z</time></trkpt><trkpt lat="45.3877917" lon="10.5436817"><ele>145.14285714285714</ele><time>2026-04-08T09:18:05.454Z</time></trkpt><trkpt lat="45.3877433" lon="10.5437417"><ele>143.71428571428572</ele><time>2026-04-08T09:18:06.452Z</time></trkpt><trkpt lat="45.38769" lon="10.5438033"><ele>142.28571428571428</ele><time>2026-04-08T09:18:07.451Z</time></trkpt><trkpt lat="45.387625" lon="10.5438633"><ele>140.85714285714286</ele><time>2026-04-08T09:18:08.455Z</time></trkpt><trkpt lat="45.3875633" lon="10.54391"><ele>139.42857142857144</ele><time>2026-04-08T09:18:09.449Z</time></trkpt><trkpt lat="45.3875033" lon="10.543955"><ele>138.0</ele><time>2026-04-08T09:18:10.446Z</time></trkpt><trkpt lat="45.3874467" lon="10.544005"><ele>136.20000000000002</ele><time>2026-04-08T09:18:11.453Z</time></trkpt><trkpt lat="45.38735" lon="10.5441"><ele>134.4</ele><time>2026-04-08T09:18:13.452Z</time></trkpt><trkpt lat="45.3872533" lon="10.5442317"><ele>132.60000000000002</ele><time>2026-04-08T09:18:15.447Z</time></trkpt><trkpt lat="45.38719" lon="10.5442967"><ele>130.8</ele><time>2026-04-08T09:18:16.448Z</time></trkpt><trkpt lat="45.3871233" lon="10.5443483"><ele>129.0</ele><time>2026-04-08T09:18:17.452Z</time></trkpt><trkpt lat="45.3870533" lon="10.5443883"><ele>128.33333333333334</ele><time>2026-04-08T09:18:18.452Z</time></trkpt><trkpt lat="45.3869817" lon="10.5444283"><ele>127.66666666666666</ele><time>2026-04-08T09:18:19.449Z</time></trkpt><trkpt lat="45.38691" lon="10.544475"><ele>127.0</ele><time>2026-04-08T09:18:20.457Z</time></trkpt><trkpt lat="45.3868417" lon="10.5445283"><ele>126.33333333333333</ele><time>2026-04-08T09:18:21.455Z</time></trkpt><trkpt lat="45.3867733" lon="10.54458"><ele>125.66666666666666</ele><time>2026-04-08T09:18:22.449Z</time></trkpt><trkpt lat="45.3867067" lon="10.54462"><ele>125.0</ele><time>2026-04-08T09:18:23.453Z</time></trkpt><trkpt lat="45.3865933" lon="10.5446683"><ele>124.49999999999999</ele><time>2026-04-08T09:18:25.453Z</time></trkpt><trkpt lat="45.3865117" lon="10.5447083"><ele>124.0</ele><time>2026-04-08T09:18:27.452Z</time></trkpt><trkpt lat="45.3864633" lon="10.544785"><ele>123.5</ele><time>2026-04-08T09:18:30.443Z</time></trkpt><trkpt lat="45.3864983" lon="10.5448717"><ele>123.0</ele><time>2026-04-08T09:18:32.447Z</time></trkpt><trkpt lat="45.38656" lon="10.544925"><ele>122.49999999999999</ele><time>2026-04-08T09:18:34.446Z</time></trkpt><trkpt lat="45.386635" lon="10.5449633"><ele>122.0</ele><time>2026-04-08T09:18:36.444Z</time></trkpt><trkpt lat="45.386715" lon="10.5450233"><ele>122.0</ele><time>2026-04-08T09:18:38.445Z</time></trkpt><trkpt lat="45.3867933" lon="10.54512"><ele>121.99999999999999</ele><time>2026-04-08T09:18:40.437Z</time></trkpt><trkpt lat="45.3868617" lon="10.5452367"><ele>121.99999999999999</ele><time>2026-04-08T09:18:42.445Z</time></trkpt><trkpt lat="45.386915" lon="10.5453767"><ele>122.0</ele><time>2026-04-08T09:18:44.456Z</time></trkpt><trkpt lat="45.386975" lon="10.5454983"><ele>122.0</ele><time>2026-04-08T09:18:46.446Z</time></trkpt><trkpt lat="45.3870383" lon="10.5456117"><ele>122.19999999999999</ele><time>2026-04-08T09:18:48.454Z</time></trkpt><trkpt lat="45.3871067" lon="10.54572"><ele>122.39999999999999</ele><time>2026-04-08T09:18:50.449Z</time></trkpt><trkpt lat="45.38718" lon="10.54583"><ele>122.60000000000001</ele><time>2026-04-08T09:18:52.455Z</time></trkpt><trkpt lat="45.3872533" lon="10.545945"><ele>122.80000000000001</ele><time>2026-04-08T09:18:54.455Z</time></trkpt><trkpt lat="45.3873183" lon="10.5460567"><ele>123.0</ele><time>2026-04-08T09:18:56.454Z</time></trkpt><trkpt lat="45.387375" lon="10.54617"><ele>123.16666666666667</ele><time>2026-04-08T09:18:58.45Z</time></trkpt><trkpt lat="45.3874133" lon="10.5462917"><ele>123.33333333333334</ele><time>2026-04-08T09:19:00.448Z</time></trkpt><trkpt lat="45.38745" lon="10.5464117"><ele>123.5</ele><time>2026-04-08T09:19:02.447Z</time></trkpt><trkpt lat="45.38748" lon="10.5465333"><ele>123.66666666666667</ele><time>2026-04-08T09:19:04.455Z</time></trkpt><trkpt lat="45.3875183" lon="10.54664"><ele>123.83333333333334</ele><time>2026-04-08T09:19:06.449Z</time></trkpt><trkpt lat="45.3875733" lon="10.5467"><ele>124.0</ele><time>2026-04-08T09:19:08.456Z</time></trkpt><trkpt lat="45.387665" lon="10.5466567"><ele>124.00000000000001</ele><time>2026-04-08T09:19:11.445Z</time></trkpt><trkpt lat="45.3877283" lon="10.5466067"><ele>124.0</ele><time>2026-04-08T09:19:13.447Z</time></trkpt><trkpt lat="45.387785" lon="10.54654"><ele>124.0</ele><time>2026-04-08T09:19:15.447Z</time></trkpt><trkpt lat="45.3878517" lon="10.54647"><ele>124.0</ele><time>2026-04-08T09:19:17.446Z</time></trkpt><trkpt lat="45.38792" lon="10.5463933"><ele>124.00000000000001</ele><time>2026-04-08T09:19:19.453Z</time></trkpt><trkpt lat="45.3879933" lon="10.5463217"><ele>124.0</ele><time>2026-04-08T09:19:21.453Z</time></trkpt><trkpt lat="45.3880667" lon="10.5462467"><ele>123.80000000000001</ele><time>2026-04-08T09:19:23.455Z</time></trkpt><trkpt lat="45.3881467" lon="10.546155"><ele>123.60000000000001</ele><time>2026-04-08T09:19:25.455Z</time></trkpt><trkpt lat="45.3882233" lon="10.5460617"><ele>123.4</ele><time>2026-04-08T09:19:27.454Z</time></trkpt><trkpt lat="45.3883033" lon="10.545965"><ele>123.2</ele><time>2026-04-08T09:19:29.448Z</time></trkpt><trkpt lat="45.388385" lon="10.5458617"><ele>123.0</ele><time>2026-04-08T09:19:31.452Z</time></trkpt><trkpt lat="45.3884633" lon="10.5457517"><ele>123.0</ele><time>2026-04-08T09:19:33.453Z</time></trkpt><trkpt lat="45.3885383" lon="10.54564"><ele>123.00000000000001</ele><time>2026-04-08T09:19:35.455Z</time></trkpt><trkpt lat="45.38861" lon="10.54553"><ele>123.00000000000001</ele><time>2026-04-08T09:19:37.455Z</time></trkpt><trkpt lat="45.3886817" lon="10.54542"><ele>123.0</ele><time>2026-04-08T09:19:39.454Z</time></trkpt><trkpt lat="45.3887467" lon="10.5453083"><ele>123.0</ele><time>2026-04-08T09:19:41.455Z</time></trkpt><trkpt lat="45.3888167" lon="10.545205"><ele>124.16666666666667</ele><time>2026-04-08T09:19:43.456Z</time></trkpt><trkpt lat="45.3888817" lon="10.5451033"><ele>125.33333333333334</ele><time>2026-04-08T09:19:45.453Z</time></trkpt><trkpt lat="45.3889333" lon="10.545015"><ele>126.5</ele><time>2026-04-08T09:19:47.454Z</time></trkpt><trkpt lat="45.3890167" lon="10.5450383"><ele>127.66666666666667</ele><time>2026-04-08T09:19:50.445Z</time></trkpt><trkpt lat="45.3890667" lon="10.54513"><ele>128.83333333333334</ele><time>2026-04-08T09:19:52.451Z</time></trkpt><trkpt lat="45.3891067" lon="10.54525"><ele>130.0</ele><time>2026-04-08T09:19:54.447Z</time></trkpt><trkpt lat="45.3891467" lon="10.5453733"><ele>129.16666666666669</ele><time>2026-04-08T09:19:56.45Z</time></trkpt><trkpt lat="45.389215" lon="10.5455133"><ele>128.33333333333334</ele><time>2026-04-08T09:19:58.45Z</time></trkpt><trkpt lat="45.38925" lon="10.5455933"><ele>127.5</ele><time>2026-04-08T09:19:59.45Z</time></trkpt><trkpt lat="45.3892817" lon="10.5456783"><ele>126.66666666666666</ele><time>2026-04-08T09:20:00.456Z</time></trkpt><trkpt lat="45.3893133" lon="10.54577"><ele>125.83333333333333</ele><time>2026-04-08T09:20:01.454Z</time></trkpt><trkpt lat="45.3893533" lon="10.5458583"><ele>125.0</ele><time>2026-04-08T09:20:02.457Z</time></trkpt><trkpt lat="45.3893933" lon="10.5459583"><ele>124.99999999999999</ele><time>2026-04-08T09:20:03.452Z</time></trkpt><trkpt lat="45.38943" lon="10.54606"><ele>125.0</ele><time>2026-04-08T09:20:04.455Z</time></trkpt><trkpt lat="45.3894667" lon="10.54617"><ele>125.0</ele><time>2026-04-08T09:20:05.45Z</time></trkpt><trkpt lat="45.3895033" lon="10.54628"><ele>125.0</ele><time>2026-04-08T09:20:06.45Z</time></trkpt><trkpt lat="45.3895417" lon="10.5463933"><ele>124.99999999999999</ele><time>2026-04-08T09:20:07.454Z</time></trkpt><trkpt lat="45.3895767" lon="10.5465033"><ele>125.0</ele><time>2026-04-08T09:20:08.454Z</time></trkpt><trkpt lat="45.38961" lon="10.5466133"><ele>124.33333333333333</ele><time>2026-04-08T09:20:09.452Z</time></trkpt><trkpt lat="45.38964" lon="10.5467183"><ele>123.66666666666666</ele><time>2026-04-08T09:20:10.453Z</time></trkpt><trkpt lat="45.3896733" lon="10.5468217"><ele>123.0</ele><time>2026-04-08T09:20:11.455Z</time></trkpt><trkpt lat="45.3897033" lon="10.546925"><ele>122.33333333333334</ele><time>2026-04-08T09:20:12.457Z</time></trkpt><trkpt lat="45.3897367" lon="10.547025"><ele>121.66666666666667</ele><time>2026-04-08T09:20:13.455Z</time></trkpt><trkpt lat="45.3897667" lon="10.5471267"><ele>121.0</ele><time>2026-04-08T09:20:14.457Z</time></trkpt><trkpt lat="45.3897917" lon="10.547225"><ele>120.8</ele><time>2026-04-08T09:20:15.455Z</time></trkpt><trkpt lat="45.3898133" lon="10.54732"><ele>120.6</ele><time>2026-04-08T09:20:16.453Z</time></trkpt><trkpt lat="45.389835" lon="10.5474133"><ele>120.4</ele><time>2026-04-08T09:20:17.453Z</time></trkpt><trkpt lat="45.3898567" lon="10.5475017"><ele>120.2</ele><time>2026-04-08T09:20:18.454Z</time></trkpt><trkpt lat="45.3899117" lon="10.5476633"><ele>120.0</ele><time>2026-04-08T09:20:20.458Z</time></trkpt><trkpt lat="45.38996" lon="10.5478283"><ele>120.0</ele><time>2026-04-08T09:20:22.455Z</time></trkpt><trkpt lat="45.39" lon="10.5479867"><ele>120.0</ele><time>2026-04-08T09:20:24.456Z</time></trkpt><trkpt lat="45.39004" lon="10.5481283"><ele>120.0</ele><time>2026-04-08T09:20:26.45Z</time></trkpt><trkpt lat="45.3900717" lon="10.5482717"><ele>120.0</ele><time>2026-04-08T09:20:28.453Z</time></trkpt><trkpt lat="45.3901217" lon="10.5484183"><ele>120.0</ele><time>2026-04-08T09:20:30.452Z</time></trkpt><trkpt lat="45.3901667" lon="10.5485767"><ele>121.25</ele><time>2026-04-08T09:20:32.454Z</time></trkpt><trkpt lat="45.39021" lon="10.5487333"><ele>122.5</ele><time>2026-04-08T09:20:34.454Z</time></trkpt><trkpt lat="45.3902517" lon="10.5488883"><ele>123.75</ele><time>2026-04-08T09:20:36.455Z</time></trkpt><trkpt lat="45.3902883" lon="10.54904"><ele>125.0</ele><time>2026-04-08T09:20:38.456Z</time></trkpt><trkpt lat="45.3903217" lon="10.5491917"><ele>125.0</ele><time>2026-04-08T09:20:40.455Z</time></trkpt><trkpt lat="45.3903583" lon="10.5493467"><ele>125.0</ele><time>2026-04-08T09:20:42.453Z</time></trkpt><trkpt lat="45.39039" lon="10.5495"><ele>125.0</ele><time>2026-04-08T09:20:44.453Z</time></trkpt><trkpt lat="45.3904233" lon="10.5496517"><ele>125.0</ele><time>2026-04-08T09:20:46.452Z</time></trkpt><trkpt lat="45.390455" lon="10.5497883"><ele>125.0</ele><time>2026-04-08T09:20:48.455Z</time></trkpt><trkpt lat="45.390485" lon="10.5499033"><ele>124.66666666666666</ele><time>2026-04-08T09:20:50.453Z</time></trkpt><trkpt lat="45.3905133" lon="10.550005"><ele>124.33333333333333</ele><time>2026-04-08T09:20:52.443Z</time></trkpt><trkpt lat="45.390545" lon="10.5501067"><ele>124.0</ele><time>2026-04-08T09:20:54.449Z</time></trkpt><trkpt lat="45.3905733" lon="10.550215"><ele>123.66666666666666</ele><time>2026-04-08T09:20:56.456Z</time></trkpt><trkpt lat="45.3906" lon="10.550335"><ele>123.33333333333333</ele><time>2026-04-08T09:20:58.449Z</time></trkpt><trkpt lat="45.390625" lon="10.550465"><ele>123.0</ele><time>2026-04-08T09:21:00.457Z</time></trkpt><trkpt lat="45.3906683" lon="10.5505833"><ele>122.0</ele><time>2026-04-08T09:21:02.456Z</time></trkpt><trkpt lat="45.3907467" lon="10.5506733"><ele>121.0</ele><time>2026-04-08T09:21:04.455Z</time></trkpt><trkpt lat="45.390855" lon="10.5507217"><ele>120.0</ele><time>2026-04-08T09:21:06.454Z</time></trkpt><trkpt lat="45.39097" lon="10.550765"><ele>119.0</ele><time>2026-04-08T09:21:08.46Z</time></trkpt><trkpt lat="45.39109" lon="10.5508233"><ele>119.0</ele><time>2026-04-08T09:21:10.455Z</time></trkpt><trkpt lat="45.3911517" lon="10.55085"><ele>119.0</ele><time>2026-04-08T09:21:11.455Z</time></trkpt><trkpt lat="45.3912133" lon="10.5508767"><ele>119.0</ele><time>2026-04-08T09:21:12.455Z</time></trkpt><trkpt lat="45.39128" lon="10.5509017"><ele>119.0</ele><time>2026-04-08T09:21:13.456Z</time></trkpt><trkpt lat="45.39135" lon="10.5509267"><ele>119.0</ele><time>2026-04-08T09:21:14.454Z</time></trkpt><trkpt lat="45.391425" lon="10.5509517"><ele>119.0</ele><time>2026-04-08T09:21:15.454Z</time></trkpt><trkpt lat="45.3915" lon="10.5509783"><ele>119.0</ele><time>2026-04-08T09:21:16.453Z</time></trkpt><trkpt lat="45.3915767" lon="10.5510067"><ele>118.49999999999999</ele><time>2026-04-08T09:21:17.454Z</time></trkpt><trkpt lat="45.3916533" lon="10.5510333"><ele>118.0</ele><time>2026-04-08T09:21:18.451Z</time></trkpt><trkpt lat="45.3917283" lon="10.5510583"><ele>117.5</ele><time>2026-04-08T09:21:19.449Z</time></trkpt><trkpt lat="45.3918" lon="10.5510817"><ele>117.0</ele><time>2026-04-08T09:21:20.454Z</time></trkpt><trkpt lat="45.3918667" lon="10.5511017"><ele>116.49999999999999</ele><time>2026-04-08T09:21:21.453Z</time></trkpt><trkpt lat="45.39197" lon="10.5511417"><ele>116.0</ele><time>2026-04-08T09:21:23.447Z</time></trkpt><trkpt lat="45.3920483" lon="10.551175"><ele>114.83333333333333</ele><time>2026-04-08T09:21:25.445Z</time></trkpt><trkpt lat="45.39208" lon="10.5512683"><ele>113.66666666666666</ele><time>2026-04-08T09:21:28.454Z</time></trkpt><trkpt lat="45.392015" lon="10.551285"><ele>112.5</ele><time>2026-04-08T09:21:31.454Z</time></trkpt><trkpt lat="45.39195" lon="10.55127"><ele>111.33333333333334</ele><time>2026-04-08T09:21:33.454Z</time></trkpt><trkpt lat="45.39187" lon="10.5512533"><ele>110.16666666666667</ele><time>2026-04-08T09:21:35.449Z</time></trkpt><trkpt lat="45.3917817" lon="10.551235"><ele>109.0</ele><time>2026-04-08T09:21:37.447Z</time></trkpt><trkpt lat="45.3916867" lon="10.5512183"><ele>110.4</ele><time>2026-04-08T09:21:39.446Z</time></trkpt><trkpt lat="45.39159" lon="10.5511983"><ele>111.80000000000001</ele><time>2026-04-08T09:21:41.456Z</time></trkpt><trkpt lat="45.391485" lon="10.55117"><ele>113.19999999999999</ele><time>2026-04-08T09:21:43.456Z</time></trkpt><trkpt lat="45.39138" lon="10.55115"><ele>114.6</ele><time>2026-04-08T09:21:45.444Z</time></trkpt><trkpt lat="45.39128" lon="10.55114"><ele>116.0</ele><time>2026-04-08T09:21:47.447Z</time></trkpt><trkpt lat="45.3911867" lon="10.551155"><ele>116.6</ele><time>2026-04-08T09:21:49.448Z</time></trkpt><trkpt lat="45.39109" lon="10.5511767"><ele>117.19999999999999</ele><time>2026-04-08T09:21:51.455Z</time></trkpt><trkpt lat="45.390985" lon="10.5511833"><ele>117.80000000000001</ele><time>2026-04-08T09:21:53.454Z</time></trkpt><trkpt lat="45.3908867" lon="10.5511917"><ele>118.4</ele><time>2026-04-08T09:21:55.455Z</time></trkpt><trkpt lat="45.390785" lon="10.5512083"><ele>119.0</ele><time>2026-04-08T09:21:57.455Z</time></trkpt><trkpt lat="45.390685" lon="10.5512267"><ele>118.4</ele><time>2026-04-08T09:21:59.455Z</time></trkpt><trkpt lat="45.3905817" lon="10.5512533"><ele>117.80000000000001</ele><time>2026-04-08T09:22:01.453Z</time></trkpt><trkpt lat="45.3904883" lon="10.5512667"><ele>117.19999999999999</ele><time>2026-04-08T09:22:03.456Z</time></trkpt><trkpt lat="45.3903983" lon="10.5513017"><ele>116.6</ele><time>2026-04-08T09:22:05.451Z</time></trkpt><trkpt lat="45.3903083" lon="10.551335"><ele>116.0</ele><time>2026-04-08T09:22:07.456Z</time></trkpt><trkpt lat="45.3902167" lon="10.55137"><ele>116.0</ele><time>2026-04-08T09:22:09.454Z</time></trkpt><trkpt lat="45.3901217" lon="10.5513917"><ele>116.0</ele><time>2026-04-08T09:22:11.446Z</time></trkpt><trkpt lat="45.3900217" lon="10.551405"><ele>116.0</ele><time>2026-04-08T09:22:13.449Z</time></trkpt><trkpt lat="45.3899267" lon="10.5514117"><ele>116.0</ele><time>2026-04-08T09:22:15.455Z</time></trkpt><trkpt lat="45.3898333" lon="10.5514167"><ele>116.0</ele><time>2026-04-08T09:22:17.455Z</time></trkpt><trkpt lat="45.38975" lon="10.5514133"><ele>115.99999999999999</ele><time>2026-04-08T09:22:19.445Z</time></trkpt><trkpt lat="45.38967" lon="10.551445"><ele>116.0</ele><time>2026-04-08T09:22:22.453Z</time></trkpt><trkpt lat="45.3896867" lon="10.55157"><ele>116.0</ele><time>2026-04-08T09:22:25.448Z</time></trkpt><trkpt lat="45.389685" lon="10.5516917"><ele>116.0</ele><time>2026-04-08T09:22:27.445Z</time></trkpt><trkpt lat="45.3896683" lon="10.55179"><ele>115.99999999999999</ele><time>2026-04-08T09:22:29.447Z</time></trkpt><trkpt lat="45.389635" lon="10.5518767"><ele>116.0</ele><time>2026-04-08T09:22:32.457Z</time></trkpt><trkpt lat="45.3896333" lon="10.5520133"><ele>116.19999999999999</ele><time>2026-04-08T09:22:35.447Z</time></trkpt><trkpt lat="45.3896467" lon="10.55214"><ele>116.39999999999999</ele><time>2026-04-08T09:22:37.454Z</time></trkpt><trkpt lat="45.3896733" lon="10.5522833"><ele>116.6</ele><time>2026-04-08T09:22:39.455Z</time></trkpt><trkpt lat="45.3897017" lon="10.5524483"><ele>116.8</ele><time>2026-04-08T09:22:41.453Z</time></trkpt><trkpt lat="45.3897267" lon="10.5526267"><ele>117.0</ele><time>2026-04-08T09:22:43.45Z</time></trkpt><trkpt lat="45.3897383" lon="10.5527183"><ele>116.28571428571429</ele><time>2026-04-08T09:22:44.454Z</time></trkpt><trkpt lat="45.3897517" lon="10.5528133"><ele>115.57142857142858</ele><time>2026-04-08T09:22:45.453Z</time></trkpt><trkpt lat="45.3897633" lon="10.5529083"><ele>114.85714285714286</ele><time>2026-04-08T09:22:46.451Z</time></trkpt><trkpt lat="45.3897767" lon="10.5530033"><ele>114.14285714285714</ele><time>2026-04-08T09:22:47.449Z</time></trkpt><trkpt lat="45.38979" lon="10.553095"><ele>113.42857142857143</ele><time>2026-04-08T09:22:48.455Z</time></trkpt><trkpt lat="45.3898033" lon="10.5531883"><ele>112.71428571428572</ele><time>2026-04-08T09:22:49.454Z</time></trkpt><trkpt lat="45.3898183" lon="10.55328"><ele>112.0</ele><time>2026-04-08T09:22:50.456Z</time></trkpt><trkpt lat="45.38983" lon="10.5533683"><ele>112.0</ele><time>2026-04-08T09:22:51.452Z</time></trkpt><trkpt lat="45.38985" lon="10.5535367"><ele>111.99999999999999</ele><time>2026-04-08T09:22:53.45Z</time></trkpt><trkpt lat="45.3898717" lon="10.5536867"><ele>111.99999999999999</ele><time>2026-04-08T09:22:55.452Z</time></trkpt><trkpt lat="45.3898917" lon="10.5538383"><ele>112.0</ele><time>2026-04-08T09:22:57.449Z</time></trkpt><trkpt lat="45.38991" lon="10.55398"><ele>112.0</ele><time>2026-04-08T09:22:59.454Z</time></trkpt><trkpt lat="45.3899317" lon="10.5541167"><ele>111.66666666666667</ele><time>2026-04-08T09:23:01.454Z</time></trkpt><trkpt lat="45.3899433" lon="10.5542417"><ele>111.33333333333334</ele><time>2026-04-08T09:23:03.455Z</time></trkpt><trkpt lat="45.3899667" lon="10.5543533"><ele>111.0</ele><time>2026-04-08T09:23:05.454Z</time></trkpt><trkpt lat="45.3900333" lon="10.5544033"><ele>110.66666666666666</ele><time>2026-04-08T09:23:07.446Z</time></trkpt><trkpt lat="45.39012" lon="10.55434"><ele>110.33333333333333</ele><time>2026-04-08T09:23:09.447Z</time></trkpt><trkpt lat="45.3901867" lon="10.55425"><ele>110.0</ele><time>2026-04-08T09:23:11.45Z</time></trkpt><trkpt lat="45.39027" lon="10.554185"><ele>110.0</ele><time>2026-04-08T09:23:13.45Z</time></trkpt><trkpt lat="45.3903583" lon="10.5541383"><ele>110.0</ele><time>2026-04-08T09:23:15.449Z</time></trkpt><trkpt lat="45.390455" lon="10.55408"><ele>110.0</ele><time>2026-04-08T09:23:17.449Z</time></trkpt><trkpt lat="45.3905617" lon="10.5540217"><ele>110.0</ele><time>2026-04-08T09:23:19.455Z</time></trkpt><trkpt lat="45.3906767" lon="10.5539633"><ele>110.0</ele><time>2026-04-08T09:23:21.453Z</time></trkpt><trkpt lat="45.3907733" lon="10.553915"><ele>109.33333333333333</ele><time>2026-04-08T09:23:23.448Z</time></trkpt><trkpt lat="45.3908567" lon="10.5539417"><ele>108.66666666666666</ele><time>2026-04-08T09:23:25.453Z</time></trkpt><trkpt lat="45.39091" lon="10.5540233"><ele>108.0</ele><time>2026-04-08T09:23:27.455Z</time></trkpt><trkpt lat="45.3909417" lon="10.5541033"><ele>107.33333333333334</ele><time>2026-04-08T09:23:29.45Z</time></trkpt><trkpt lat="45.390975" lon="10.55421"><ele>106.66666666666667</ele><time>2026-04-08T09:23:32.451Z</time></trkpt><trkpt lat="45.3910067" lon="10.5543067"><ele>106.0</ele><time>2026-04-08T09:23:35.445Z</time></trkpt><trkpt lat="45.3910683" lon="10.554395"><ele>106.00000000000001</ele><time>2026-04-08T09:23:38.45Z</time></trkpt><trkpt lat="45.391105" lon="10.5544933"><ele>106.0</ele><time>2026-04-08T09:23:40.454Z</time></trkpt><trkpt lat="45.3911283" lon="10.554585"><ele>106.0</ele><time>2026-04-08T09:23:42.446Z</time></trkpt><trkpt lat="45.391165" lon="10.5546733"><ele>106.0</ele><time>2026-04-08T09:23:44.456Z</time></trkpt><trkpt lat="45.391215" lon="10.5547533"><ele>106.00000000000001</ele><time>2026-04-08T09:23:46.454Z</time></trkpt><trkpt lat="45.3912617" lon="10.554865"><ele>106.0</ele><time>2026-04-08T09:23:49.453Z</time></trkpt><trkpt lat="45.391285" lon="10.5549783"><ele>106.28571428571429</ele><time>2026-04-08T09:23:52.452Z</time></trkpt><trkpt lat="45.3912767" lon="10.5550883"><ele>106.57142857142857</ele><time>2026-04-08T09:23:55.445Z</time></trkpt><trkpt lat="45.3912783" lon="10.5552017"><ele>106.85714285714286</ele><time>2026-04-08T09:23:58.443Z</time></trkpt><trkpt lat="45.391305" lon="10.5552833"><ele>107.14285714285714</ele><time>2026-04-08T09:24:00.441Z</time></trkpt><trkpt lat="45.3913517" lon="10.5553633"><ele>107.42857142857142</ele><time>2026-04-08T09:24:03.443Z</time></trkpt><trkpt lat="45.3913983" lon="10.55545"><ele>107.71428571428571</ele><time>2026-04-08T09:24:08.445Z</time></trkpt><trkpt lat="45.39142" lon="10.5555467"><ele>108.0</ele><time>2026-04-08T09:24:12.448Z</time></trkpt><trkpt lat="45.391495" lon="10.5555067"><ele>108.5</ele><time>2026-04-08T09:24:19.445Z</time></trkpt><trkpt lat="45.3915667" lon="10.5554117"><ele>109.0</ele><time>2026-04-08T09:24:22.446Z</time></trkpt><trkpt lat="45.3916217" lon="10.55534"><ele>109.5</ele><time>2026-04-08T09:24:24.457Z</time></trkpt><trkpt lat="45.3916783" lon="10.5552817"><ele>110.0</ele><time>2026-04-08T09:24:26.456Z</time></trkpt><trkpt lat="45.39174" lon="10.555215"><ele>110.5</ele><time>2026-04-08T09:24:33.449Z</time></trkpt><trkpt lat="45.39172" lon="10.555335"><ele>111.0</ele><time>2026-04-08T09:24:43.446Z</time></trkpt><trkpt lat="45.391675" lon="10.555425"><ele>112.14285714285714</ele><time>2026-04-08T09:24:46.448Z</time></trkpt><trkpt lat="45.39164" lon="10.5555"><ele>113.28571428571429</ele><time>2026-04-08T09:24:49.449Z</time></trkpt><trkpt lat="45.3916033" lon="10.5555783"><ele>114.42857142857143</ele><time>2026-04-08T09:24:52.449Z</time></trkpt><trkpt lat="45.3915483" lon="10.5556567"><ele>115.57142857142857</ele><time>2026-04-08T09:24:55.454Z</time></trkpt><trkpt lat="45.3914883" lon="10.55574"><ele>116.71428571428572</ele><time>2026-04-08T09:24:58.446Z</time></trkpt><trkpt lat="45.3914483" lon="10.5558317"><ele>117.85714285714286</ele><time>2026-04-08T09:25:01.453Z</time></trkpt><trkpt lat="45.3914083" lon="10.5559267"><ele>119.0</ele><time>2026-04-08T09:25:04.453Z</time></trkpt><trkpt lat="45.3913733" lon="10.5560483"><ele>118.66666666666666</ele><time>2026-04-08T09:25:07.448Z</time></trkpt><trkpt lat="45.391325" lon="10.55616"><ele>118.33333333333333</ele><time>2026-04-08T09:25:10.449Z</time></trkpt><trkpt lat="45.3912867" lon="10.5562317"><ele>118.0</ele><time>2026-04-08T09:25:12.45Z</time></trkpt><trkpt lat="45.391225" lon="10.5563167"><ele>117.66666666666666</ele><time>2026-04-08T09:25:15.453Z</time></trkpt><trkpt lat="45.391185" lon="10.5564117"><ele>117.33333333333333</ele><time>2026-04-08T09:25:18.455Z</time></trkpt><trkpt lat="45.391125" lon="10.5565217"><ele>117.0</ele><time>2026-04-08T09:25:21.449Z</time></trkpt><trkpt lat="45.3910717" lon="10.5566"><ele>117.0</ele><time>2026-04-08T09:25:23.449Z</time></trkpt><trkpt lat="45.3910267" lon="10.556675"><ele>117.00000000000001</ele><time>2026-04-08T09:25:25.448Z</time></trkpt><trkpt lat="45.39098" lon="10.5567417"><ele>117.0</ele><time>2026-04-08T09:25:27.447Z</time></trkpt><trkpt lat="45.3909083" lon="10.5568317"><ele>117.0</ele><time>2026-04-08T09:25:30.45Z</time></trkpt><trkpt lat="45.3908517" lon="10.5568967"><ele>117.00000000000001</ele><time>2026-04-08T09:25:32.455Z</time></trkpt><trkpt lat="45.3907933" lon="10.5569567"><ele>117.0</ele><time>2026-04-08T09:25:34.449Z</time></trkpt><trkpt lat="45.39074" lon="10.557015"><ele>117.0</ele><time>2026-04-08T09:25:36.448Z</time></trkpt><trkpt lat="45.3906683" lon="10.55707"><ele>117.0</ele><time>2026-04-08T09:25:39.449Z</time></trkpt><trkpt lat="45.3907133" lon="10.5570017"><ele>117.0</ele><time>2026-04-08T09:25:50.447Z</time></trkpt><trkpt lat="45.390795" lon="10.5569533"><ele>117.0</ele><time>2026-04-08T09:25:53.45Z</time></trkpt><trkpt lat="45.39086" lon="10.5569267"><ele>117.0</ele><time>2026-04-08T09:25:55.443Z</time></trkpt><trkpt lat="45.3909233" lon="10.5569183"><ele>117.0</ele><time>2026-04-08T09:25:57.45Z</time></trkpt><trkpt lat="45.3909867" lon="10.5569217"><ele>117.0</ele><time>2026-04-08T09:25:59.449Z</time></trkpt><trkpt lat="45.39108" lon="10.5569783"><ele>118.16666666666667</ele><time>2026-04-08T09:26:02.454Z</time></trkpt><trkpt lat="45.3911083" lon="10.557095"><ele>119.33333333333334</ele><time>2026-04-08T09:26:04.448Z</time></trkpt><trkpt lat="45.39111" lon="10.5572017"><ele>120.5</ele><time>2026-04-08T09:26:06.448Z</time></trkpt><trkpt lat="45.39112" lon="10.5573117"><ele>121.66666666666667</ele><time>2026-04-08T09:26:08.455Z</time></trkpt><trkpt lat="45.3911283" lon="10.557425"><ele>122.83333333333334</ele><time>2026-04-08T09:26:10.448Z</time></trkpt><trkpt lat="45.391145" lon="10.5575417"><ele>124.0</ele><time>2026-04-08T09:26:13.449Z</time></trkpt><trkpt lat="45.3912017" lon="10.557615"><ele>124.00000000000001</ele><time>2026-04-08T09:26:16.449Z</time></trkpt><trkpt lat="45.3912733" lon="10.5576217"><ele>124.0</ele><time>2026-04-08T09:26:19.449Z</time></trkpt><trkpt lat="45.391365" lon="10.5576217"><ele>124.0</ele><time>2026-04-08T09:26:22.451Z</time></trkpt><trkpt lat="45.391455" lon="10.557625"><ele>124.0</ele><time>2026-04-08T09:26:25.455Z</time></trkpt><trkpt lat="45.3915417" lon="10.5576233"><ele>124.00000000000001</ele><time>2026-04-08T09:26:28.448Z</time></trkpt><trkpt lat="45.3916133" lon="10.557605"><ele>124.0</ele><time>2026-04-08T09:26:30.451Z</time></trkpt><trkpt lat="45.3916983" lon="10.5575683"><ele>125.00000000000001</ele><time>2026-04-08T09:26:33.453Z</time></trkpt><trkpt lat="45.3917717" lon="10.557535"><ele>126.0</ele><time>2026-04-08T09:26:35.45Z</time></trkpt><trkpt lat="45.3918517" lon="10.5575"><ele>127.0</ele><time>2026-04-08T09:26:37.456Z</time></trkpt><trkpt lat="45.3919267" lon="10.5574683"><ele>128.0</ele><time>2026-04-08T09:26:39.448Z</time></trkpt><trkpt lat="45.3919917" lon="10.5574283"><ele>129.0</ele><time>2026-04-08T09:26:41.448Z</time></trkpt><trkpt lat="45.3920683" lon="10.5573817"><ele>130.0</ele><time>2026-04-08T09:26:43.448Z</time></trkpt><trkpt lat="45.3921333" lon="10.55734"><ele>130.0</ele><time>2026-04-08T09:26:45.447Z</time></trkpt><trkpt lat="45.3921917" lon="10.557295"><ele>130.0</ele><time>2026-04-08T09:26:48.448Z</time></trkpt><trkpt lat="45.3922467" lon="10.55725"><ele>130.0</ele><time>2026-04-08T09:26:50.448Z</time></trkpt><trkpt lat="45.3923217" lon="10.5572267"><ele>130.0</ele><time>2026-04-08T09:26:52.45Z</time></trkpt><trkpt lat="45.3924167" lon="10.55721"><ele>130.0</ele><time>2026-04-08T09:26:54.455Z</time></trkpt><trkpt lat="45.39253" lon="10.5571933"><ele>130.0</ele><time>2026-04-08T09:26:56.459Z</time></trkpt><trkpt lat="45.3926333" lon="10.557185"><ele>130.0</ele><time>2026-04-08T09:26:58.453Z</time></trkpt><trkpt lat="45.392725" lon="10.5571617"><ele>130.0</ele><time>2026-04-08T09:27:00.454Z</time></trkpt><trkpt lat="45.39282" lon="10.5571433"><ele>130.0</ele><time>2026-04-08T09:27:02.453Z</time></trkpt><trkpt lat="45.3929167" lon="10.5571117"><ele>130.0</ele><time>2026-04-08T09:27:04.449Z</time></trkpt><trkpt lat="45.3930017" lon="10.5570667"><ele>130.0</ele><time>2026-04-08T09:27:06.456Z</time></trkpt><trkpt lat="45.39308" lon="10.5569767"><ele>130.16666666666669</ele><time>2026-04-08T09:27:08.46Z</time></trkpt><trkpt lat="45.3931433" lon="10.5568783"><ele>130.33333333333334</ele><time>2026-04-08T09:27:10.449Z</time></trkpt><trkpt lat="45.393205" lon="10.556775"><ele>130.5</ele><time>2026-04-08T09:27:12.454Z</time></trkpt><trkpt lat="45.3932783" lon="10.5567017"><ele>130.66666666666666</ele><time>2026-04-08T09:27:14.455Z</time></trkpt><trkpt lat="45.3933617" lon="10.5566917"><ele>130.83333333333331</ele><time>2026-04-08T09:27:16.456Z</time></trkpt><trkpt lat="45.3934367" lon="10.5567167"><ele>131.0</ele><time>2026-04-08T09:27:18.456Z</time></trkpt><trkpt lat="45.3935283" lon="10.556725"><ele>131.0</ele><time>2026-04-08T09:27:21.453Z</time></trkpt><trkpt lat="45.393605" lon="10.556725"><ele>131.0</ele><time>2026-04-08T09:27:23.449Z</time></trkpt><trkpt lat="45.3936817" lon="10.556745"><ele>131.0</ele><time>2026-04-08T09:27:25.454Z</time></trkpt><trkpt lat="45.393755" lon="10.5567517"><ele>131.0</ele><time>2026-04-08T09:27:27.447Z</time></trkpt><trkpt lat="45.393825" lon="10.5567217"><ele>131.0</ele><time>2026-04-08T09:27:29.453Z</time></trkpt><trkpt lat="45.3939033" lon="10.5566917"><ele>131.0</ele><time>2026-04-08T09:27:31.448Z</time></trkpt><trkpt lat="45.3939783" lon="10.5566817"><ele>131.16666666666666</ele><time>2026-04-08T09:27:33.448Z</time></trkpt><trkpt lat="45.3940717" lon="10.5566817"><ele>131.33333333333331</ele><time>2026-04-08T09:27:36.455Z</time></trkpt><trkpt lat="45.394145" lon="10.55668"><ele>131.5</ele><time>2026-04-08T09:27:38.454Z</time></trkpt><trkpt lat="45.3942317" lon="10.5566833"><ele>131.66666666666666</ele><time>2026-04-08T09:27:40.453Z</time></trkpt><trkpt lat="45.3943133" lon="10.5566817"><ele>131.83333333333334</ele><time>2026-04-08T09:27:42.455Z</time></trkpt><trkpt lat="45.39439" lon="10.5567033"><ele>132.0</ele><time>2026-04-08T09:27:44.457Z</time></trkpt><trkpt lat="45.3944683" lon="10.5567033"><ele>132.0</ele><time>2026-04-08T09:27:46.452Z</time></trkpt><trkpt lat="45.39455" lon="10.5567133"><ele>132.0</ele><time>2026-04-08T09:27:48.449Z</time></trkpt><trkpt lat="45.3946333" lon="10.55672"><ele>132.0</ele><time>2026-04-08T09:27:50.455Z</time></trkpt><trkpt lat="45.394725" lon="10.5567417"><ele>132.0</ele><time>2026-04-08T09:27:52.455Z</time></trkpt><trkpt lat="45.3948117" lon="10.55675"><ele>132.0</ele><time>2026-04-08T09:27:54.454Z</time></trkpt><trkpt lat="45.3948983" lon="10.5567617"><ele>132.0</ele><time>2026-04-08T09:27:56.452Z</time></trkpt><trkpt lat="45.3949817" lon="10.5567567"><ele>132.16666666666666</ele><time>2026-04-08T09:27:58.455Z</time></trkpt><trkpt lat="45.3950633" lon="10.5567367"><ele>132.33333333333334</ele><time>2026-04-08T09:28:00.454Z</time></trkpt><trkpt lat="45.3951417" lon="10.5567317"><ele>132.5</ele><time>2026-04-08T09:28:02.455Z</time></trkpt><trkpt lat="45.395215" lon="10.556725"><ele>132.66666666666669</ele><time>2026-04-08T09:28:04.448Z</time></trkpt><trkpt lat="45.3952833" lon="10.5567167"><ele>132.83333333333334</ele><time>2026-04-08T09:28:06.452Z</time></trkpt><trkpt lat="45.3953517" lon="10.5567317"><ele>133.0</ele><time>2026-04-08T09:28:08.457Z</time></trkpt><trkpt lat="45.3954283" lon="10.5567483"><ele>132.83333333333334</ele><time>2026-04-08T09:28:11.452Z</time></trkpt><trkpt lat="45.3955683" lon="10.55675"><ele>132.66666666666669</ele><time>2026-04-08T09:28:37.455Z</time></trkpt><trkpt lat="45.3956333" lon="10.5567483"><ele>132.5</ele><time>2026-04-08T09:28:40.443Z</time></trkpt><trkpt lat="45.3957117" lon="10.55673"><ele>132.33333333333334</ele><time>2026-04-08T09:28:43.449Z</time></trkpt><trkpt lat="45.3957767" lon="10.5567317"><ele>132.16666666666666</ele><time>2026-04-08T09:28:45.455Z</time></trkpt><trkpt lat="45.3958267" lon="10.5567883"><ele>132.0</ele><time>2026-04-08T09:28:48.455Z</time></trkpt><trkpt lat="45.3958783" lon="10.5568517"><ele>132.0</ele><time>2026-04-08T09:28:52.455Z</time></trkpt><trkpt lat="45.3959517" lon="10.5568317"><ele>132.0</ele><time>2026-04-08T09:28:57.443Z</time></trkpt><trkpt lat="45.396015" lon="10.5568"><ele>132.0</ele><time>2026-04-08T09:29:01.454Z</time></trkpt><trkpt lat="45.3960783" lon="10.556775"><ele>132.0</ele><time>2026-04-08T09:29:04.447Z</time></trkpt><trkpt lat="45.3961633" lon="10.5567717"><ele>132.0</ele><time>2026-04-08T09:29:07.444Z</time></trkpt><trkpt lat="45.3962367" lon="10.5567533"><ele>132.0</ele><time>2026-04-08T09:29:09.449Z</time></trkpt><trkpt lat="45.3963117" lon="10.5567383"><ele>132.0</ele><time>2026-04-08T09:29:11.45Z</time></trkpt><trkpt lat="45.3964" lon="10.5567283"><ele>130.0</ele><time>2026-04-08T09:29:13.447Z</time></trkpt><trkpt lat="45.39646" lon="10.5566933"><ele>128.0</ele><time>2026-04-08T09:29:16.445Z</time></trkpt><trkpt lat="45.3964767" lon="10.556595"><ele>126.0</ele><time>2026-04-08T09:29:20.446Z</time></trkpt><trkpt lat="45.3964717" lon="10.556505"><ele>124.0</ele><time>2026-04-08T09:29:23.447Z</time></trkpt><trkpt lat="45.396485" lon="10.5564067"><ele>122.0</ele><time>2026-04-08T09:29:25.445Z</time></trkpt><trkpt lat="45.396505" lon="10.5563067"><ele>120.0</ele><time>2026-04-08T09:29:27.445Z</time></trkpt><trkpt lat="45.3965183" lon="10.5562117"><ele>118.0</ele><time>2026-04-08T09:29:29.444Z</time></trkpt><trkpt lat="45.3965367" lon="10.556125"><ele>118.00000000000001</ele><time>2026-04-08T09:29:31.447Z</time></trkpt><trkpt lat="45.3965633" lon="10.5559967"><ele>118.0</ele><time>2026-04-08T09:29:34.448Z</time></trkpt><trkpt lat="45.3965767" lon="10.5559"><ele>118.0</ele><time>2026-04-08T09:29:36.448Z</time></trkpt><trkpt lat="45.3965867" lon="10.5557667"><ele>118.0</ele><time>2026-04-08T09:29:39.448Z</time></trkpt><trkpt lat="45.396595" lon="10.5556383"><ele>118.00000000000001</ele><time>2026-04-08T09:29:42.454Z</time></trkpt><trkpt lat="45.3965467" lon="10.555535"><ele>118.0</ele><time>2026-04-08T09:29:45.447Z</time></trkpt><trkpt lat="45.3964817" lon="10.5555217"><ele>118.00000000000001</ele><time>2026-04-08T09:29:47.448Z</time></trkpt><trkpt lat="45.3964083" lon="10.5555133"><ele>118.0</ele><time>2026-04-08T09:29:49.447Z</time></trkpt><trkpt lat="45.3963183" lon="10.555485"><ele>118.0</ele><time>2026-04-08T09:29:51.454Z</time></trkpt><trkpt lat="45.3962117" lon="10.5554583"><ele>118.0</ele><time>2026-04-08T09:29:53.453Z</time></trkpt><trkpt lat="45.3961333" lon="10.555435"><ele>118.00000000000001</ele><time>2026-04-08T09:29:55.454Z</time></trkpt><trkpt lat="45.3961567" lon="10.5553217"><ele>118.0</ele><time>2026-04-08T09:29:58.445Z</time></trkpt><trkpt lat="45.39622" lon="10.5553117"><ele>118.00000000000001</ele><time>2026-04-08T09:29:59.453Z</time></trkpt><trkpt lat="45.3963417" lon="10.5553617"><ele>118.0</ele><time>2026-04-08T09:30:01.454Z</time></trkpt><trkpt lat="45.3964083" lon="10.5553967"><ele>118.0</ele><time>2026-04-08T09:30:02.452Z</time></trkpt><trkpt lat="45.3964783" lon="10.5554183"><ele>118.0</ele><time>2026-04-08T09:30:03.456Z</time></trkpt><trkpt lat="45.3965483" lon="10.5554267"><ele>118.00000000000001</ele><time>2026-04-08T09:30:04.449Z</time></trkpt><trkpt lat="45.3966167" lon="10.5554267"><ele>118.0</ele><time>2026-04-08T09:30:05.453Z</time></trkpt><trkpt lat="45.3966817" lon="10.5554217"><ele>118.0</ele><time>2026-04-08T09:30:06.456Z</time></trkpt><trkpt lat="45.39678" lon="10.5554217"><ele>118.00000000000001</ele><time>2026-04-08T09:30:08.458Z</time></trkpt><trkpt lat="45.39686" lon="10.5554583"><ele>118.00000000000001</ele><time>2026-04-08T09:30:10.454Z</time></trkpt><trkpt lat="45.3969317" lon="10.5555483"><ele>118.0</ele><time>2026-04-08T09:30:12.456Z</time></trkpt><trkpt lat="45.3970033" lon="10.55568"><ele>118.0</ele><time>2026-04-08T09:30:14.459Z</time></trkpt><trkpt lat="45.3970983" lon="10.5557483"><ele>115.83333333333334</ele><time>2026-04-08T09:30:16.456Z</time></trkpt><trkpt lat="45.3972017" lon="10.555785"><ele>113.66666666666667</ele><time>2026-04-08T09:30:18.456Z</time></trkpt><trkpt lat="45.39727" lon="10.5558017"><ele>111.5</ele><time>2026-04-08T09:30:20.454Z</time></trkpt><trkpt lat="45.397345" lon="10.5557717"><ele>109.33333333333334</ele><time>2026-04-08T09:30:23.45Z</time></trkpt><trkpt lat="45.3973717" lon="10.5556783"><ele>107.16666666666667</ele><time>2026-04-08T09:30:25.449Z</time></trkpt><trkpt lat="45.3973967" lon="10.5555533"><ele>105.0</ele><time>2026-04-08T09:30:27.45Z</time></trkpt><trkpt lat="45.3974283" lon="10.5554233"><ele>106.0</ele><time>2026-04-08T09:30:29.443Z</time></trkpt><trkpt lat="45.3974717" lon="10.5552933"><ele>107.0</ele><time>2026-04-08T09:30:31.445Z</time></trkpt><trkpt lat="45.3975183" lon="10.5551667"><ele>108.0</ele><time>2026-04-08T09:30:33.449Z</time></trkpt><trkpt lat="45.3975567" lon="10.5550517"><ele>109.0</ele><time>2026-04-08T09:30:35.454Z</time></trkpt><trkpt lat="45.39759" lon="10.5549217"><ele>110.0</ele><time>2026-04-08T09:30:37.453Z</time></trkpt><trkpt lat="45.3976167" lon="10.554785"><ele>110.0</ele><time>2026-04-08T09:30:39.455Z</time></trkpt><trkpt lat="45.3976217" lon="10.554645"><ele>110.0</ele><time>2026-04-08T09:30:41.456Z</time></trkpt><trkpt lat="45.3976083" lon="10.5544967"><ele>110.0</ele><time>2026-04-08T09:30:43.453Z</time></trkpt><trkpt lat="45.397585" lon="10.5543683"><ele>110.0</ele><time>2026-04-08T09:30:45.456Z</time></trkpt><trkpt lat="45.3975567" lon="10.5542433"><ele>110.0</ele><time>2026-04-08T09:30:47.457Z</time></trkpt><trkpt lat="45.3975167" lon="10.554115"><ele>110.6</ele><time>2026-04-08T09:30:49.456Z</time></trkpt><trkpt lat="45.397475" lon="10.553995"><ele>111.2</ele><time>2026-04-08T09:30:51.45Z</time></trkpt><trkpt lat="45.3974267" lon="10.5538783"><ele>111.80000000000001</ele><time>2026-04-08T09:30:53.455Z</time></trkpt><trkpt lat="45.3973733" lon="10.5537517"><ele>112.4</ele><time>2026-04-08T09:30:55.456Z</time></trkpt><trkpt lat="45.39732" lon="10.553635"><ele>113.0</ele><time>2026-04-08T09:30:57.452Z</time></trkpt><trkpt lat="45.3972817" lon="10.55352"><ele>113.4</ele><time>2026-04-08T09:30:59.456Z</time></trkpt><trkpt lat="45.39724" lon="10.5533967"><ele>113.80000000000001</ele><time>2026-04-08T09:31:01.455Z</time></trkpt><trkpt lat="45.3972133" lon="10.5532633"><ele>114.2</ele><time>2026-04-08T09:31:03.454Z</time></trkpt><trkpt lat="45.3971867" lon="10.5531217"><ele>114.6</ele><time>2026-04-08T09:31:05.452Z</time></trkpt><trkpt lat="45.3971567" lon="10.5529767"><ele>115.0</ele><time>2026-04-08T09:31:07.455Z</time></trkpt><trkpt lat="45.3971267" lon="10.5528467"><ele>118.0</ele><time>2026-04-08T09:31:09.455Z</time></trkpt><trkpt lat="45.39709" lon="10.5527267"><ele>121.0</ele><time>2026-04-08T09:31:11.455Z</time></trkpt><trkpt lat="45.3970183" lon="10.5526017"><ele>124.0</ele><time>2026-04-08T09:31:13.455Z</time></trkpt><trkpt lat="45.3969533" lon="10.5524883"><ele>127.0</ele><time>2026-04-08T09:31:15.443Z</time></trkpt><trkpt lat="45.3969" lon="10.55237"><ele>130.0</ele><time>2026-04-08T09:31:17.454Z</time></trkpt><trkpt lat="45.39687" lon="10.55225"><ele>130.0</ele><time>2026-04-08T09:31:19.455Z</time></trkpt><trkpt lat="45.3968667" lon="10.552105"><ele>130.0</ele><time>2026-04-08T09:31:21.453Z</time></trkpt><trkpt lat="45.3968733" lon="10.5519867"><ele>130.0</ele><time>2026-04-08T09:31:23.45Z</time></trkpt><trkpt lat="45.3968683" lon="10.551875"><ele>130.0</ele><time>2026-04-08T09:31:25.446Z</time></trkpt><trkpt lat="45.39687" lon="10.5517267"><ele>130.0</ele><time>2026-04-08T09:31:27.448Z</time></trkpt><trkpt lat="45.3968633" lon="10.5516367"><ele>130.0</ele><time>2026-04-08T09:31:28.453Z</time></trkpt><trkpt lat="45.396875" lon="10.5515167"><ele>128.5</ele><time>2026-04-08T09:31:29.455Z</time></trkpt><trkpt lat="45.3968883" lon="10.55141"><ele>127.0</ele><time>2026-04-08T09:31:30.454Z</time></trkpt><trkpt lat="45.3969083" lon="10.5513017"><ele>125.5</ele><time>2026-04-08T09:31:31.453Z</time></trkpt><trkpt lat="45.3969317" lon="10.5512"><ele>124.0</ele><time>2026-04-08T09:31:32.449Z</time></trkpt><trkpt lat="45.396955" lon="10.5510967"><ele>122.50000000000001</ele><time>2026-04-08T09:31:33.445Z</time></trkpt><trkpt lat="45.3969817" lon="10.5509967"><ele>121.0</ele><time>2026-04-08T09:31:34.453Z</time></trkpt><trkpt lat="45.3970117" lon="10.5508983"><ele>121.14285714285714</ele><time>2026-04-08T09:31:35.448Z</time></trkpt><trkpt lat="45.3970417" lon="10.5508"><ele>121.28571428571428</ele><time>2026-04-08T09:31:36.458Z</time></trkpt><trkpt lat="45.39707" lon="10.5507033"><ele>121.42857142857142</ele><time>2026-04-08T09:31:37.454Z</time></trkpt><trkpt lat="45.3971" lon="10.5506033"><ele>121.57142857142856</ele><time>2026-04-08T09:31:38.452Z</time></trkpt><trkpt lat="45.3971217" lon="10.550505"><ele>121.71428571428571</ele><time>2026-04-08T09:31:39.456Z</time></trkpt><trkpt lat="45.397145" lon="10.5504033"><ele>121.85714285714283</ele><time>2026-04-08T09:31:40.451Z</time></trkpt><trkpt lat="45.3971633" lon="10.5502983"><ele>121.99999999999999</ele><time>2026-04-08T09:31:41.456Z</time></trkpt><trkpt lat="45.3971817" lon="10.5501933"><ele>121.99999999999999</ele><time>2026-04-08T09:31:42.457Z</time></trkpt><trkpt lat="45.3971933" lon="10.5500933"><ele>122.0</ele><time>2026-04-08T09:31:43.455Z</time></trkpt><trkpt lat="45.397205" lon="10.5499933"><ele>121.99999999999999</ele><time>2026-04-08T09:31:44.46Z</time></trkpt><trkpt lat="45.3972167" lon="10.549895"><ele>121.99999999999999</ele><time>2026-04-08T09:31:45.456Z</time></trkpt><trkpt lat="45.3972283" lon="10.549795"><ele>122.0</ele><time>2026-04-08T09:31:46.455Z</time></trkpt><trkpt lat="45.39724" lon="10.549695"><ele>121.99999999999999</ele><time>2026-04-08T09:31:47.446Z</time></trkpt><trkpt lat="45.3972533" lon="10.5495983"><ele>121.99999999999999</ele><time>2026-04-08T09:31:48.455Z</time></trkpt><trkpt lat="45.397265" lon="10.5494967"><ele>121.7142857142857</ele><time>2026-04-08T09:31:49.454Z</time></trkpt><trkpt lat="45.3972767" lon="10.5494033"><ele>121.42857142857142</ele><time>2026-04-08T09:31:50.455Z</time></trkpt><trkpt lat="45.3972883" lon="10.5493133"><ele>121.14285714285714</ele><time>2026-04-08T09:31:51.454Z</time></trkpt><trkpt lat="45.3973" lon="10.54922"><ele>120.85714285714285</ele><time>2026-04-08T09:31:52.447Z</time></trkpt><trkpt lat="45.3973083" lon="10.5491267"><ele>120.57142857142856</ele><time>2026-04-08T09:31:53.45Z</time></trkpt><trkpt lat="45.3973133" lon="10.5490367"><ele>120.28571428571429</ele><time>2026-04-08T09:31:54.456Z</time></trkpt><trkpt lat="45.3973217" lon="10.5489467"><ele>120.0</ele><time>2026-04-08T09:31:55.454Z</time></trkpt><trkpt lat="45.39733" lon="10.5488567"><ele>119.25</ele><time>2026-04-08T09:31:56.457Z</time></trkpt><trkpt lat="45.39735" lon="10.54868"><ele>118.5</ele><time>2026-04-08T09:31:58.45Z</time></trkpt><trkpt lat="45.39737" lon="10.54851"><ele>117.75</ele><time>2026-04-08T09:32:00.457Z</time></trkpt><trkpt lat="45.3973933" lon="10.54834"><ele>117.0</ele><time>2026-04-08T09:32:02.457Z</time></trkpt><trkpt lat="45.397415" lon="10.5481683"><ele>117.0</ele><time>2026-04-08T09:32:04.447Z</time></trkpt><trkpt lat="45.3974383" lon="10.5479967"><ele>117.0</ele><time>2026-04-08T09:32:06.447Z</time></trkpt><trkpt lat="45.3974567" lon="10.547825"><ele>117.0</ele><time>2026-04-08T09:32:08.458Z</time></trkpt><trkpt lat="45.39749" lon="10.5476567"><ele>117.0</ele><time>2026-04-08T09:32:10.449Z</time></trkpt><trkpt lat="45.3975317" lon="10.5474867"><ele>116.8</ele><time>2026-04-08T09:32:12.454Z</time></trkpt><trkpt lat="45.3975767" lon="10.5473233"><ele>116.6</ele><time>2026-04-08T09:32:14.461Z</time></trkpt><trkpt lat="45.3976133" lon="10.5471567"><ele>116.39999999999999</ele><time>2026-04-08T09:32:16.453Z</time></trkpt><trkpt lat="45.39765" lon="10.5469883"><ele>116.19999999999999</ele><time>2026-04-08T09:32:18.455Z</time></trkpt><trkpt lat="45.3976683" lon="10.5469"><ele>116.0</ele><time>2026-04-08T09:32:19.449Z</time></trkpt><trkpt lat="45.3976983" lon="10.546725"><ele>115.4</ele><time>2026-04-08T09:32:21.453Z</time></trkpt><trkpt lat="45.3977083" lon="10.546635"><ele>114.8</ele><time>2026-04-08T09:32:22.454Z</time></trkpt><trkpt lat="45.3977083" lon="10.54646"><ele>114.20000000000002</ele><time>2026-04-08T09:32:24.451Z</time></trkpt><trkpt lat="45.397685" lon="10.54629"><ele>113.60000000000001</ele><time>2026-04-08T09:32:26.457Z</time></trkpt><trkpt lat="45.397645" lon="10.5461233"><ele>113.0</ele><time>2026-04-08T09:32:28.449Z</time></trkpt><trkpt lat="45.397615" lon="10.5459583"><ele>112.99999999999999</ele><time>2026-04-08T09:32:30.457Z</time></trkpt><trkpt lat="45.3976067" lon="10.5457867"><ele>113.0</ele><time>2026-04-08T09:32:32.459Z</time></trkpt><trkpt lat="45.3976233" lon="10.54561"><ele>113.0</ele><time>2026-04-08T09:32:34.455Z</time></trkpt><trkpt lat="45.39764" lon="10.54552"><ele>113.0</ele><time>2026-04-08T09:32:35.449Z</time></trkpt><trkpt lat="45.39766" lon="10.54543"><ele>112.99999999999999</ele><time>2026-04-08T09:32:36.458Z</time></trkpt><trkpt lat="45.3976833" lon="10.5453417"><ele>113.0</ele><time>2026-04-08T09:32:37.448Z</time></trkpt><trkpt lat="45.3977033" lon="10.5452517"><ele>112.99999999999999</ele><time>2026-04-08T09:32:38.453Z</time></trkpt><trkpt lat="45.3977283" lon="10.54516"><ele>113.0</ele><time>2026-04-08T09:32:39.451Z</time></trkpt><trkpt lat="45.397755" lon="10.5450717"><ele>113.0</ele><time>2026-04-08T09:32:40.454Z</time></trkpt><trkpt lat="45.3977833" lon="10.5449883"><ele>113.0</ele><time>2026-04-08T09:32:41.455Z</time></trkpt><trkpt lat="45.3978467" lon="10.5448317"><ele>112.99999999999999</ele><time>2026-04-08T09:32:43.455Z</time></trkpt><trkpt lat="45.397885" lon="10.5447567"><ele>113.0</ele><time>2026-04-08T09:32:44.46Z</time></trkpt><trkpt lat="45.3979233" lon="10.5446833"><ele>113.0</ele><time>2026-04-08T09:32:45.455Z</time></trkpt><trkpt lat="45.3979633" lon="10.5446117"><ele>113.0</ele><time>2026-04-08T09:32:46.45Z</time></trkpt><trkpt lat="45.398005" lon="10.5445417"><ele>113.0</ele><time>2026-04-08T09:32:47.448Z</time></trkpt><trkpt lat="45.3980467" lon="10.54447"><ele>113.0</ele><time>2026-04-08T09:32:48.455Z</time></trkpt><trkpt lat="45.398085" lon="10.5443983"><ele>113.0</ele><time>2026-04-08T09:32:49.448Z</time></trkpt><trkpt lat="45.3981217" lon="10.544325"><ele>113.0</ele><time>2026-04-08T09:32:50.454Z</time></trkpt><trkpt lat="45.3981567" lon="10.54425"><ele>113.0</ele><time>2026-04-08T09:32:51.447Z</time></trkpt><trkpt lat="45.39822" lon="10.5440933"><ele>113.0</ele><time>2026-04-08T09:32:53.455Z</time></trkpt><trkpt lat="45.3982817" lon="10.54394"><ele>113.0</ele><time>2026-04-08T09:32:55.457Z</time></trkpt><trkpt lat="45.39834" lon="10.543785"><ele>113.0</ele><time>2026-04-08T09:32:57.455Z</time></trkpt><trkpt lat="45.3984" lon="10.5436333"><ele>113.0</ele><time>2026-04-08T09:32:59.455Z</time></trkpt><trkpt lat="45.398455" lon="10.5434817"><ele>112.5</ele><time>2026-04-08T09:33:01.455Z</time></trkpt><trkpt lat="45.39851" lon="10.54333"><ele>112.0</ele><time>2026-04-08T09:33:03.452Z</time></trkpt><trkpt lat="45.3985583" lon="10.5431817"><ele>111.5</ele><time>2026-04-08T09:33:05.454Z</time></trkpt><trkpt lat="45.3985917" lon="10.54303"><ele>111.0</ele><time>2026-04-08T09:33:07.454Z</time></trkpt><trkpt lat="45.39862" lon="10.5428783"><ele>111.0</ele><time>2026-04-08T09:33:09.447Z</time></trkpt><trkpt lat="45.39864" lon="10.54272"><ele>111.0</ele><time>2026-04-08T09:33:11.454Z</time></trkpt><trkpt lat="45.398675" lon="10.542565"><ele>111.0</ele><time>2026-04-08T09:33:13.456Z</time></trkpt><trkpt lat="45.398715" lon="10.5424183"><ele>111.0</ele><time>2026-04-08T09:33:15.454Z</time></trkpt><trkpt lat="45.39876" lon="10.5422833"><ele>111.0</ele><time>2026-04-08T09:33:17.447Z</time></trkpt><trkpt lat="45.3988033" lon="10.54214"><ele>111.4</ele><time>2026-04-08T09:33:19.453Z</time></trkpt><trkpt lat="45.39883" lon="10.5419883"><ele>111.8</ele><time>2026-04-08T09:33:21.448Z</time></trkpt><trkpt lat="45.3988617" lon="10.54185"><ele>112.20000000000002</ele><time>2026-04-08T09:33:23.45Z</time></trkpt><trkpt lat="45.3989467" lon="10.5418183"><ele>112.60000000000001</ele><time>2026-04-08T09:33:25.452Z</time></trkpt><trkpt lat="45.39904" lon="10.5418717"><ele>113.0</ele><time>2026-04-08T09:33:27.448Z</time></trkpt><trkpt lat="45.3991183" lon="10.541935"><ele>113.14285714285714</ele><time>2026-04-08T09:33:29.455Z</time></trkpt><trkpt lat="45.3991583" lon="10.54204"><ele>113.28571428571428</ele><time>2026-04-08T09:33:31.45Z</time></trkpt><trkpt lat="45.399175" lon="10.542145"><ele>113.42857142857142</ele><time>2026-04-08T09:33:33.449Z</time></trkpt><trkpt lat="45.3991883" lon="10.5422483"><ele>113.57142857142857</ele><time>2026-04-08T09:33:35.455Z</time></trkpt><trkpt lat="45.39918" lon="10.54234"><ele>113.7142857142857</ele><time>2026-04-08T09:33:37.456Z</time></trkpt><trkpt lat="45.3991883" lon="10.54244"><ele>113.85714285714285</ele><time>2026-04-08T09:33:39.453Z</time></trkpt><trkpt lat="45.3992083" lon="10.5425317"><ele>114.0</ele><time>2026-04-08T09:33:41.453Z</time></trkpt><trkpt lat="45.399225" lon="10.5426533"><ele>114.5</ele><time>2026-04-08T09:33:44.456Z</time></trkpt><trkpt lat="45.39926" lon="10.542775"><ele>115.0</ele><time>2026-04-08T09:33:47.443Z</time></trkpt><trkpt lat="45.399325" lon="10.5428833"><ele>115.5</ele><time>2026-04-08T09:33:50.456Z</time></trkpt><trkpt lat="45.3993983" lon="10.5429633"><ele>116.0</ele><time>2026-04-08T09:33:53.445Z</time></trkpt><trkpt lat="45.3994683" lon="10.543005"><ele>116.5</ele><time>2026-04-08T09:33:56.457Z</time></trkpt><trkpt lat="45.399545" lon="10.54305"><ele>117.0</ele><time>2026-04-08T09:33:59.446Z</time></trkpt><trkpt lat="45.3996" lon="10.5430967"><ele>118.71428571428572</ele><time>2026-04-08T09:34:01.446Z</time></trkpt><trkpt lat="45.3996817" lon="10.5431417"><ele>120.42857142857144</ele><time>2026-04-08T09:34:04.453Z</time></trkpt><trkpt lat="45.3997683" lon="10.54316"><ele>122.14285714285714</ele><time>2026-04-08T09:34:07.444Z</time></trkpt><trkpt lat="45.39984" lon="10.5431367"><ele>123.85714285714286</ele><time>2026-04-08T09:34:09.455Z</time></trkpt><trkpt lat="45.399905" lon="10.5431117"><ele>125.57142857142857</ele><time>2026-04-08T09:34:11.445Z</time></trkpt><trkpt lat="45.3999683" lon="10.543075"><ele>127.28571428571428</ele><time>2026-04-08T09:34:13.455Z</time></trkpt><trkpt lat="45.40003" lon="10.5430467"><ele>129.0</ele><time>2026-04-08T09:34:15.449Z</time></trkpt><trkpt lat="45.4001317" lon="10.543025"><ele>129.0</ele><time>2026-04-08T09:34:18.447Z</time></trkpt><trkpt lat="45.40021" lon="10.5430167"><ele>129.0</ele><time>2026-04-08T09:34:21.454Z</time></trkpt><trkpt lat="45.400275" lon="10.5430083"><ele>129.0</ele><time>2026-04-08T09:34:23.451Z</time></trkpt><trkpt lat="45.4003467" lon="10.54304"><ele>129.0</ele><time>2026-04-08T09:34:26.455Z</time></trkpt><trkpt lat="45.4004033" lon="10.543125"><ele>129.0</ele><time>2026-04-08T09:34:28.454Z</time></trkpt><trkpt lat="45.4004533" lon="10.5432017"><ele>129.0</ele><time>2026-04-08T09:34:30.438Z</time></trkpt><trkpt lat="45.4004817" lon="10.5433167"><ele>128.99999999999997</ele><time>2026-04-08T09:34:32.446Z</time></trkpt><trkpt lat="45.400485" lon="10.5434217"><ele>129.0</ele><time>2026-04-08T09:34:34.449Z</time></trkpt><trkpt lat="45.40045" lon="10.5435267"><ele>129.0</ele><time>2026-04-08T09:34:37.455Z</time></trkpt><trkpt lat="45.4004167" lon="10.543605"><ele>129.0</ele><time>2026-04-08T09:34:39.446Z</time></trkpt><trkpt lat="45.4003633" lon="10.5436983"><ele>129.0</ele><time>2026-04-08T09:34:42.454Z</time></trkpt><trkpt lat="45.4003083" lon="10.543745"><ele>128.99999999999997</ele><time>2026-04-08T09:34:43.454Z</time></trkpt><trkpt lat="45.4002383" lon="10.543795"><ele>129.0</ele><time>2026-04-08T09:34:46.441Z</time></trkpt><trkpt lat="45.4001433" lon="10.5438183"><ele>129.16666666666666</ele><time>2026-04-08T09:34:49.444Z</time></trkpt><trkpt lat="45.4000683" lon="10.5438333"><ele>129.33333333333334</ele><time>2026-04-08T09:34:51.444Z</time></trkpt><trkpt lat="45.3999967" lon="10.5439017"><ele>129.5</ele><time>2026-04-08T09:34:54.447Z</time></trkpt><trkpt lat="45.3999733" lon="10.5440083"><ele>129.66666666666669</ele><time>2026-04-08T09:34:57.445Z</time></trkpt><trkpt lat="45.3999833" lon="10.544145"><ele>129.83333333333334</ele><time>2026-04-08T09:35:00.454Z</time></trkpt><trkpt lat="45.4000017" lon="10.5442417"><ele>130.0</ele><time>2026-04-08T09:35:03.453Z</time></trkpt><trkpt lat="45.4000433" lon="10.5443667"><ele>130.00000000000003</ele><time>2026-04-08T09:35:41.444Z</time></trkpt><trkpt lat="45.4001" lon="10.54431"><ele>130.0</ele><time>2026-04-08T09:35:46.448Z</time></trkpt><trkpt lat="45.4001433" lon="10.5442333"><ele>130.0</ele><time>2026-04-08T09:35:49.454Z</time></trkpt><trkpt lat="45.4001783" lon="10.5441533"><ele>130.0</ele><time>2026-04-08T09:35:52.454Z</time></trkpt><trkpt lat="45.4001933" lon="10.5440433"><ele>130.0</ele><time>2026-04-08T09:35:55.45Z</time></trkpt><trkpt lat="45.400215" lon="10.543955"><ele>130.00000000000003</ele><time>2026-04-08T09:35:58.452Z</time></trkpt><trkpt lat="45.4002433" lon="10.54387"><ele>130.0</ele><time>2026-04-08T09:36:00.452Z</time></trkpt><trkpt lat="45.4002617" lon="10.5437617"><ele>130.0</ele><time>2026-04-08T09:36:02.447Z</time></trkpt><trkpt lat="45.4003217" lon="10.5437083"><ele>130.0</ele><time>2026-04-08T09:36:05.455Z</time></trkpt><trkpt lat="45.4003767" lon="10.5437933"><ele>130.0</ele><time>2026-04-08T09:36:11.449Z</time></trkpt><trkpt lat="45.400445" lon="10.5438733"><ele>130.0</ele><time>2026-04-08T09:36:14.448Z</time></trkpt><trkpt lat="45.4005133" lon="10.5439233"><ele>130.0</ele><time>2026-04-08T09:36:16.45Z</time></trkpt><trkpt lat="45.4005933" lon="10.5439767"><ele>130.0</ele><time>2026-04-08T09:36:19.45Z</time></trkpt><trkpt lat="45.4006583" lon="10.5440317"><ele>130.16666666666669</ele><time>2026-04-08T09:36:22.452Z</time></trkpt><trkpt lat="45.4007217" lon="10.54408"><ele>130.33333333333334</ele><time>2026-04-08T09:36:24.456Z</time></trkpt><trkpt lat="45.4007817" lon="10.54411"><ele>130.5</ele><time>2026-04-08T09:36:26.45Z</time></trkpt><trkpt lat="45.400845" lon="10.5441417"><ele>130.66666666666666</ele><time>2026-04-08T09:36:28.447Z</time></trkpt><trkpt lat="45.4009117" lon="10.5442033"><ele>130.83333333333331</ele><time>2026-04-08T09:36:31.449Z</time></trkpt><trkpt lat="45.40092" lon="10.5443217"><ele>131.0</ele><time>2026-04-08T09:36:35.45Z</time></trkpt><trkpt lat="45.400875" lon="10.544445"><ele>131.0</ele><time>2026-04-08T09:36:38.454Z</time></trkpt><trkpt lat="45.4008367" lon="10.5445383"><ele>131.0</ele><time>2026-04-08T09:36:40.454Z</time></trkpt><trkpt lat="45.4007917" lon="10.5446433"><ele>131.0</ele><time>2026-04-08T09:36:42.45Z</time></trkpt><trkpt lat="45.4007367" lon="10.544745"><ele>131.0</ele><time>2026-04-08T09:36:44.455Z</time></trkpt><trkpt lat="45.40068" lon="10.544855"><ele>131.0</ele><time>2026-04-08T09:36:46.454Z</time></trkpt><trkpt lat="45.4006133" lon="10.5449667"><ele>130.75</ele><time>2026-04-08T09:36:48.448Z</time></trkpt><trkpt lat="45.4005367" lon="10.54508"><ele>130.5</ele><time>2026-04-08T09:36:50.458Z</time></trkpt><trkpt lat="45.40046" lon="10.5452"><ele>130.25</ele><time>2026-04-08T09:36:52.454Z</time></trkpt><trkpt lat="45.400385" lon="10.545325"><ele>130.0</ele><time>2026-04-08T09:36:54.453Z</time></trkpt><trkpt lat="45.4003217" lon="10.5454533"><ele>129.8</ele><time>2026-04-08T09:36:56.457Z</time></trkpt><trkpt lat="45.4002617" lon="10.5455767"><ele>129.6</ele><time>2026-04-08T09:36:58.452Z</time></trkpt><trkpt lat="45.4002017" lon="10.5456933"><ele>129.4</ele><time>2026-04-08T09:37:00.454Z</time></trkpt><trkpt lat="45.400145" lon="10.5458017"><ele>129.2</ele><time>2026-04-08T09:37:02.457Z</time></trkpt><trkpt lat="45.400095" lon="10.5459017"><ele>129.0</ele><time>2026-04-08T09:37:04.454Z</time></trkpt><trkpt lat="45.4000533" lon="10.546015"><ele>129.0</ele><time>2026-04-08T09:37:06.451Z</time></trkpt><trkpt lat="45.4000017" lon="10.5461533"><ele>129.0</ele><time>2026-04-08T09:37:08.456Z</time></trkpt><trkpt lat="45.39994" lon="10.5463033"><ele>129.0</ele><time>2026-04-08T09:37:10.449Z</time></trkpt><trkpt lat="45.399905" lon="10.5463867"><ele>129.0</ele><time>2026-04-08T09:37:11.449Z</time></trkpt><trkpt lat="45.3998683" lon="10.5464733"><ele>129.0</ele><time>2026-04-08T09:37:12.448Z</time></trkpt><trkpt lat="45.3998267" lon="10.5465633"><ele>129.0</ele><time>2026-04-08T09:37:13.453Z</time></trkpt><trkpt lat="45.399785" lon="10.5466583"><ele>128.5</ele><time>2026-04-08T09:37:14.454Z</time></trkpt><trkpt lat="45.3997433" lon="10.54676"><ele>128.0</ele><time>2026-04-08T09:37:15.455Z</time></trkpt><trkpt lat="45.3997" lon="10.5468633"><ele>127.5</ele><time>2026-04-08T09:37:16.455Z</time></trkpt><trkpt lat="45.399665" lon="10.546965"><ele>127.0</ele><time>2026-04-08T09:37:17.456Z</time></trkpt><trkpt lat="45.3996283" lon="10.5470533"><ele>126.5</ele><time>2026-04-08T09:37:18.456Z</time></trkpt><trkpt lat="45.399595" lon="10.547175"><ele>126.0</ele><time>2026-04-08T09:37:20.458Z</time></trkpt><trkpt lat="45.3996717" lon="10.5471117"><ele>125.0</ele><time>2026-04-08T09:37:28.451Z</time></trkpt><trkpt lat="45.3997383" lon="10.5471217"><ele>124.0</ele><time>2026-04-08T09:37:30.449Z</time></trkpt><trkpt lat="45.3998117" lon="10.5472017"><ele>123.0</ele><time>2026-04-08T09:37:32.453Z</time></trkpt><trkpt lat="45.399895" lon="10.547305"><ele>122.0</ele><time>2026-04-08T09:37:34.453Z</time></trkpt><trkpt lat="45.3999783" lon="10.5474167"><ele>121.0</ele><time>2026-04-08T09:37:36.455Z</time></trkpt><trkpt lat="45.4000567" lon="10.54752"><ele>121.0</ele><time>2026-04-08T09:37:38.454Z</time></trkpt><trkpt lat="45.40014" lon="10.5476267"><ele>121.0</ele><time>2026-04-08T09:37:40.449Z</time></trkpt><trkpt lat="45.40023" lon="10.547745"><ele>121.0</ele><time>2026-04-08T09:37:42.454Z</time></trkpt><trkpt lat="45.4003233" lon="10.5478633"><ele>121.0</ele><time>2026-04-08T09:37:44.456Z</time></trkpt><trkpt lat="45.40037" lon="10.547925"><ele>121.0</ele><time>2026-04-08T09:37:45.453Z</time></trkpt><trkpt lat="45.4004183" lon="10.547985"><ele>121.14285714285714</ele><time>2026-04-08T09:37:46.444Z</time></trkpt><trkpt lat="45.4004683" lon="10.5480433"><ele>121.28571428571428</ele><time>2026-04-08T09:37:47.46Z</time></trkpt><trkpt lat="45.4005183" lon="10.5481017"><ele>121.42857142857142</ele><time>2026-04-08T09:37:48.456Z</time></trkpt><trkpt lat="45.4005683" lon="10.5481617"><ele>121.57142857142856</ele><time>2026-04-08T09:37:49.456Z</time></trkpt><trkpt lat="45.40062" lon="10.54822"><ele>121.71428571428571</ele><time>2026-04-08T09:37:50.45Z</time></trkpt><trkpt lat="45.40067" lon="10.5482783"><ele>121.85714285714283</ele><time>2026-04-08T09:37:51.446Z</time></trkpt><trkpt lat="45.4007183" lon="10.5483383"><ele>121.99999999999999</ele><time>2026-04-08T09:37:52.448Z</time></trkpt><trkpt lat="45.40076" lon="10.5484067"><ele>120.6</ele><time>2026-04-08T09:37:53.449Z</time></trkpt><trkpt lat="45.400795" lon="10.5485633"><ele>119.19999999999999</ele><time>2026-04-08T09:37:55.454Z</time></trkpt><trkpt lat="45.4007933" lon="10.5487167"><ele>117.8</ele><time>2026-04-08T09:37:57.455Z</time></trkpt><trkpt lat="45.400765" lon="10.5488633"><ele>116.4</ele><time>2026-04-08T09:37:59.453Z</time></trkpt><trkpt lat="45.400715" lon="10.549"><ele>115.0</ele><time>2026-04-08T09:38:01.453Z</time></trkpt><trkpt lat="45.4006667" lon="10.5491567"><ele>115.0</ele><time>2026-04-08T09:38:03.455Z</time></trkpt><trkpt lat="45.4006067" lon="10.5493133"><ele>115.0</ele><time>2026-04-08T09:38:05.453Z</time></trkpt><trkpt lat="45.4005433" lon="10.549465"><ele>115.0</ele><time>2026-04-08T09:38:07.452Z</time></trkpt><trkpt lat="45.4004783" lon="10.5496167"><ele>115.0</ele><time>2026-04-08T09:38:09.449Z</time></trkpt><trkpt lat="45.400415" lon="10.549765"><ele>115.0</ele><time>2026-04-08T09:38:11.453Z</time></trkpt><trkpt lat="45.4003817" lon="10.5498417"><ele>115.0</ele><time>2026-04-08T09:38:12.453Z</time></trkpt><trkpt lat="45.4003317" lon="10.5500067"><ele>115.0</ele><time>2026-04-08T09:38:14.455Z</time></trkpt><trkpt lat="45.40031" lon="10.5501767"><ele>115.0</ele><time>2026-04-08T09:38:16.45Z</time></trkpt><trkpt lat="45.4003217" lon="10.5503467"><ele>115.0</ele><time>2026-04-08T09:38:18.455Z</time></trkpt><trkpt lat="45.4003683" lon="10.5505017"><ele>115.0</ele><time>2026-04-08T09:38:20.457Z</time></trkpt><trkpt lat="45.4004267" lon="10.550655"><ele>115.0</ele><time>2026-04-08T09:38:22.455Z</time></trkpt><trkpt lat="45.4004867" lon="10.55081"><ele>115.0</ele><time>2026-04-08T09:38:24.456Z</time></trkpt><trkpt lat="45.4005333" lon="10.550955"><ele>115.0</ele><time>2026-04-08T09:38:26.456Z</time></trkpt><trkpt lat="45.40057" lon="10.5510783"><ele>114.8</ele><time>2026-04-08T09:38:28.449Z</time></trkpt><trkpt lat="45.4006517" lon="10.5511267"><ele>114.6</ele><time>2026-04-08T09:38:30.456Z</time></trkpt><trkpt lat="45.400765" lon="10.5511067"><ele>114.4</ele><time>2026-04-08T09:38:32.455Z</time></trkpt><trkpt lat="45.40083" lon="10.5510983"><ele>114.2</ele><time>2026-04-08T09:38:33.455Z</time></trkpt><trkpt lat="45.4009517" lon="10.5510917"><ele>114.0</ele><time>2026-04-08T09:38:35.456Z</time></trkpt><trkpt lat="45.4010633" lon="10.551075"><ele>114.0</ele><time>2026-04-08T09:38:37.454Z</time></trkpt><trkpt lat="45.4011717" lon="10.5510317"><ele>114.0</ele><time>2026-04-08T09:38:39.451Z</time></trkpt><trkpt lat="45.4012733" lon="10.5509583"><ele>114.0</ele><time>2026-04-08T09:38:41.456Z</time></trkpt><trkpt lat="45.4013667" lon="10.5508467"><ele>114.0</ele><time>2026-04-08T09:38:43.449Z</time></trkpt><trkpt lat="45.4014433" lon="10.5507383"><ele>114.5</ele><time>2026-04-08T09:38:45.456Z</time></trkpt><trkpt lat="45.4015133" lon="10.5506317"><ele>115.0</ele><time>2026-04-08T09:38:47.457Z</time></trkpt><trkpt lat="45.4015917" lon="10.5505217"><ele>115.5</ele><time>2026-04-08T09:38:49.453Z</time></trkpt><trkpt lat="45.401675" lon="10.5503967"><ele>116.0</ele><time>2026-04-08T09:38:51.455Z</time></trkpt><trkpt lat="45.4017583" lon="10.5502783"><ele>116.0</ele><time>2026-04-08T09:38:53.453Z</time></trkpt><trkpt lat="45.4018417" lon="10.550175"><ele>116.0</ele><time>2026-04-08T09:38:55.449Z</time></trkpt><trkpt lat="45.4019083" lon="10.550085"><ele>116.0</ele><time>2026-04-08T09:38:57.457Z</time></trkpt><trkpt lat="45.4019767" lon="10.549985"><ele>116.0</ele><time>2026-04-08T09:38:59.455Z</time></trkpt><trkpt lat="45.4020533" lon="10.54989"><ele>116.0</ele><time>2026-04-08T09:39:01.45Z</time></trkpt><trkpt lat="45.4021267" lon="10.5498083"><ele>115.83333333333333</ele><time>2026-04-08T09:39:03.453Z</time></trkpt><trkpt lat="45.4022067" lon="10.5497233"><ele>115.66666666666666</ele><time>2026-04-08T09:39:05.451Z</time></trkpt><trkpt lat="45.4022817" lon="10.5496567"><ele>115.5</ele><time>2026-04-08T09:39:07.448Z</time></trkpt><trkpt lat="45.4023367" lon="10.5496"><ele>115.33333333333334</ele><time>2026-04-08T09:39:09.448Z</time></trkpt><trkpt lat="45.40241" lon="10.549515"><ele>115.16666666666667</ele><time>2026-04-08T09:39:12.45Z</time></trkpt><trkpt lat="45.4024767" lon="10.5494767"><ele>115.0</ele><time>2026-04-08T09:39:14.455Z</time></trkpt><trkpt lat="45.4025433" lon="10.54944"><ele>115.0</ele><time>2026-04-08T09:39:16.453Z</time></trkpt><trkpt lat="45.402635" lon="10.5494233"><ele>115.0</ele><time>2026-04-08T09:39:19.452Z</time></trkpt><trkpt lat="45.4027283" lon="10.5494117"><ele>115.0</ele><time>2026-04-08T09:39:22.455Z</time></trkpt><trkpt lat="45.4028033" lon="10.5494167"><ele>115.0</ele><time>2026-04-08T09:39:24.456Z</time></trkpt><trkpt lat="45.4028783" lon="10.5493517"><ele>115.0</ele><time>2026-04-08T09:39:27.449Z</time></trkpt><trkpt lat="45.402855" lon="10.5491917"><ele>114.99999999999999</ele><time>2026-04-08T09:39:29.452Z</time></trkpt><trkpt lat="45.402825" lon="10.5490317"><ele>115.0</ele><time>2026-04-08T09:39:31.452Z</time></trkpt><trkpt lat="45.4028033" lon="10.5489467"><ele>114.99999999999999</ele><time>2026-04-08T09:39:32.453Z</time></trkpt><trkpt lat="45.4027783" lon="10.5488633"><ele>114.99999999999999</ele><time>2026-04-08T09:39:33.456Z</time></trkpt><trkpt lat="45.4027517" lon="10.5487817"><ele>115.0</ele><time>2026-04-08T09:39:34.449Z</time></trkpt><trkpt lat="45.40272" lon="10.5487033"><ele>114.99999999999999</ele><time>2026-04-08T09:39:35.45Z</time></trkpt><trkpt lat="45.4026917" lon="10.54862"><ele>114.99999999999999</ele><time>2026-04-08T09:39:36.455Z</time></trkpt><trkpt lat="45.4026617" lon="10.54854"><ele>114.6</ele><time>2026-04-08T09:39:37.455Z</time></trkpt><trkpt lat="45.40263" lon="10.54846"><ele>114.2</ele><time>2026-04-08T09:39:38.453Z</time></trkpt><trkpt lat="45.4026033" lon="10.5483783"><ele>113.80000000000001</ele><time>2026-04-08T09:39:39.456Z</time></trkpt><trkpt lat="45.402575" lon="10.54821"><ele>113.4</ele><time>2026-04-08T09:39:41.454Z</time></trkpt><trkpt lat="45.4025933" lon="10.548035"><ele>113.0</ele><time>2026-04-08T09:39:43.455Z</time></trkpt><trkpt lat="45.402645" lon="10.547875"><ele>112.60000000000001</ele><time>2026-04-08T09:39:45.45Z</time></trkpt><trkpt lat="45.4026983" lon="10.5477233"><ele>112.20000000000002</ele><time>2026-04-08T09:39:47.445Z</time></trkpt><trkpt lat="45.4027533" lon="10.54757"><ele>111.8</ele><time>2026-04-08T09:39:49.45Z</time></trkpt><trkpt lat="45.4028" lon="10.5474083"><ele>111.4</ele><time>2026-04-08T09:39:51.454Z</time></trkpt><trkpt lat="45.4028233" lon="10.547325"><ele>111.0</ele><time>2026-04-08T09:39:52.454Z</time></trkpt><trkpt lat="45.4028617" lon="10.54716"><ele>111.5</ele><time>2026-04-08T09:39:54.448Z</time></trkpt><trkpt lat="45.4028917" lon="10.547"><ele>112.0</ele><time>2026-04-08T09:39:56.458Z</time></trkpt><trkpt lat="45.4029183" lon="10.5468467"><ele>112.5</ele><time>2026-04-08T09:39:58.454Z</time></trkpt><trkpt lat="45.4029467" lon="10.5466883"><ele>113.0</ele><time>2026-04-08T09:40:00.457Z</time></trkpt><trkpt lat="45.4030067" lon="10.5465583"><ele>113.2</ele><time>2026-04-08T09:40:02.455Z</time></trkpt><trkpt lat="45.4030733" lon="10.5464467"><ele>113.4</ele><time>2026-04-08T09:40:04.456Z</time></trkpt><trkpt lat="45.4031517" lon="10.5463383"><ele>113.60000000000001</ele><time>2026-04-08T09:40:06.437Z</time></trkpt><trkpt lat="45.403225" lon="10.5462467"><ele>113.80000000000001</ele><time>2026-04-08T09:40:08.449Z</time></trkpt><trkpt lat="45.4032733" lon="10.54616"><ele>114.0</ele><time>2026-04-08T09:40:10.446Z</time></trkpt><trkpt lat="45.4032317" lon="10.5460667"><ele>114.0</ele><time>2026-04-08T09:40:13.444Z</time></trkpt><trkpt lat="45.40317" lon="10.5459933"><ele>114.0</ele><time>2026-04-08T09:40:15.445Z</time></trkpt><trkpt lat="45.403145" lon="10.54588"><ele>114.0</ele><time>2026-04-08T09:40:17.446Z</time></trkpt><trkpt lat="45.403205" lon="10.545745"><ele>114.0</ele><time>2026-04-08T09:40:19.445Z</time></trkpt><trkpt lat="45.4032633" lon="10.5456217"><ele>114.0</ele><time>2026-04-08T09:40:21.453Z</time></trkpt><trkpt lat="45.4033133" lon="10.5454967"><ele>114.6</ele><time>2026-04-08T09:40:23.456Z</time></trkpt><trkpt lat="45.403365" lon="10.5453667"><ele>115.2</ele><time>2026-04-08T09:40:25.458Z</time></trkpt><trkpt lat="45.40342" lon="10.545235"><ele>115.79999999999998</ele><time>2026-04-08T09:40:27.454Z</time></trkpt><trkpt lat="45.4034733" lon="10.5451033"><ele>116.39999999999999</ele><time>2026-04-08T09:40:29.455Z</time></trkpt><trkpt lat="45.4035267" lon="10.5449733"><ele>117.0</ele><time>2026-04-08T09:40:31.455Z</time></trkpt><trkpt lat="45.4035783" lon="10.5448483"><ele>117.0</ele><time>2026-04-08T09:40:33.448Z</time></trkpt><trkpt lat="45.4036283" lon="10.5447183"><ele>116.99999999999999</ele><time>2026-04-08T09:40:35.455Z</time></trkpt><trkpt lat="45.4036817" lon="10.5445833"><ele>116.99999999999999</ele><time>2026-04-08T09:40:37.448Z</time></trkpt><trkpt lat="45.403735" lon="10.5444433"><ele>117.0</ele><time>2026-04-08T09:40:39.452Z</time></trkpt><trkpt lat="45.4037933" lon="10.5442983"><ele>117.0</ele><time>2026-04-08T09:40:41.454Z</time></trkpt><trkpt lat="45.40385" lon="10.544155"><ele>117.5</ele><time>2026-04-08T09:40:43.444Z</time></trkpt><trkpt lat="45.4039067" lon="10.54401"><ele>118.0</ele><time>2026-04-08T09:40:45.448Z</time></trkpt><trkpt lat="45.4039667" lon="10.5438633"><ele>118.5</ele><time>2026-04-08T09:40:47.457Z</time></trkpt><trkpt lat="45.404025" lon="10.5437183"><ele>119.0</ele><time>2026-04-08T09:40:49.454Z</time></trkpt><trkpt lat="45.404085" lon="10.5435767"><ele>119.5</ele><time>2026-04-08T09:40:51.451Z</time></trkpt><trkpt lat="45.4041433" lon="10.543435"><ele>120.0</ele><time>2026-04-08T09:40:53.453Z</time></trkpt><trkpt lat="45.4042017" lon="10.5432917"><ele>120.5</ele><time>2026-04-08T09:40:55.456Z</time></trkpt><trkpt lat="45.4042583" lon="10.5431467"><ele>121.0</ele><time>2026-04-08T09:40:57.456Z</time></trkpt><trkpt lat="45.4043133" lon="10.5430117"><ele>121.00000000000001</ele><time>2026-04-08T09:40:59.454Z</time></trkpt><trkpt lat="45.4043683" lon="10.5428867"><ele>121.0</ele><time>2026-04-08T09:41:01.454Z</time></trkpt><trkpt lat="45.4044133" lon="10.5427733"><ele>121.0</ele><time>2026-04-08T09:41:03.453Z</time></trkpt><trkpt lat="45.4044583" lon="10.5426633"><ele>121.0</ele><time>2026-04-08T09:41:05.458Z</time></trkpt><trkpt lat="45.4045" lon="10.5425633"><ele>121.00000000000001</ele><time>2026-04-08T09:41:07.455Z</time></trkpt><trkpt lat="45.4045283" lon="10.54248"><ele>121.0</ele><time>2026-04-08T09:41:09.448Z</time></trkpt><trkpt lat="45.40457" lon="10.5423883"><ele>122.66666666666667</ele><time>2026-04-08T09:41:14.453Z</time></trkpt><trkpt lat="45.4046367" lon="10.5423817"><ele>124.33333333333334</ele><time>2026-04-08T09:41:19.455Z</time></trkpt><trkpt lat="45.404705" lon="10.542375"><ele>126.0</ele><time>2026-04-08T09:41:23.444Z</time></trkpt><trkpt lat="45.4047717" lon="10.5424233"><ele>127.66666666666666</ele><time>2026-04-08T09:41:26.446Z</time></trkpt><trkpt lat="45.4048383" lon="10.5424983"><ele>129.33333333333331</ele><time>2026-04-08T09:41:29.453Z</time></trkpt><trkpt lat="45.4049217" lon="10.5425167"><ele>131.0</ele><time>2026-04-08T09:41:32.453Z</time></trkpt><trkpt lat="45.404995" lon="10.54252"><ele>131.5</ele><time>2026-04-08T09:41:35.449Z</time></trkpt><trkpt lat="45.4050767" lon="10.5425133"><ele>132.0</ele><time>2026-04-08T09:41:39.449Z</time></trkpt><trkpt lat="45.4051517" lon="10.5425167"><ele>132.5</ele><time>2026-04-08T09:41:43.456Z</time></trkpt><trkpt lat="45.405215" lon="10.542545"><ele>133.0</ele><time>2026-04-08T09:41:46.446Z</time></trkpt><trkpt lat="45.40528" lon="10.54255"><ele>133.5</ele><time>2026-04-08T09:41:48.45Z</time></trkpt><trkpt lat="45.40537" lon="10.5425667"><ele>134.0</ele><time>2026-04-08T09:41:51.454Z</time></trkpt><trkpt lat="45.4054383" lon="10.54254"><ele>134.0</ele><time>2026-04-08T09:41:54.451Z</time></trkpt><trkpt lat="45.405485" lon="10.54247"><ele>134.0</ele><time>2026-04-08T09:41:58.448Z</time></trkpt><trkpt lat="45.4055483" lon="10.5424667"><ele>134.0</ele><time>2026-04-08T09:42:01.453Z</time></trkpt><trkpt lat="45.4056267" lon="10.54245"><ele>134.0</ele><time>2026-04-08T09:42:04.448Z</time></trkpt><trkpt lat="45.4057" lon="10.542455"><ele>134.0</ele><time>2026-04-08T09:42:07.455Z</time></trkpt><trkpt lat="45.4057883" lon="10.5424383"><ele>134.0</ele><time>2026-04-08T09:42:10.448Z</time></trkpt><trkpt lat="45.4058667" lon="10.5424333"><ele>134.16666666666666</ele><time>2026-04-08T09:42:13.449Z</time></trkpt><trkpt lat="45.4059383" lon="10.5424333"><ele>134.33333333333331</ele><time>2026-04-08T09:42:16.452Z</time></trkpt><trkpt lat="45.4060133" lon="10.5424233"><ele>134.5</ele><time>2026-04-08T09:42:19.445Z</time></trkpt><trkpt lat="45.4061033" lon="10.54243"><ele>134.66666666666666</ele><time>2026-04-08T09:42:22.452Z</time></trkpt><trkpt lat="45.4061883" lon="10.542455"><ele>134.83333333333334</ele><time>2026-04-08T09:42:25.455Z</time></trkpt><trkpt lat="45.406265" lon="10.5424767"><ele>135.0</ele><time>2026-04-08T09:42:28.442Z</time></trkpt><trkpt lat="45.4063417" lon="10.5424617"><ele>135.57142857142856</ele><time>2026-04-08T09:42:31.443Z</time></trkpt><trkpt lat="45.4064083" lon="10.542445"><ele>136.14285714285714</ele><time>2026-04-08T09:42:34.445Z</time></trkpt><trkpt lat="45.406475" lon="10.5424217"><ele>136.71428571428572</ele><time>2026-04-08T09:42:37.454Z</time></trkpt><trkpt lat="45.4065383" lon="10.5424117"><ele>137.28571428571428</ele><time>2026-04-08T09:42:40.443Z</time></trkpt><trkpt lat="45.4066017" lon="10.542425"><ele>137.85714285714286</ele><time>2026-04-08T09:42:43.449Z</time></trkpt><trkpt lat="45.40668" lon="10.542465"><ele>138.42857142857142</ele><time>2026-04-08T09:42:47.451Z</time></trkpt><trkpt lat="45.40675" lon="10.5425017"><ele>139.0</ele><time>2026-04-08T09:42:50.451Z</time></trkpt><trkpt lat="45.4068133" lon="10.54254"><ele>139.0</ele><time>2026-04-08T09:42:53.452Z</time></trkpt><trkpt lat="45.4068717" lon="10.5425917"><ele>139.0</ele><time>2026-04-08T09:43:35.448Z</time></trkpt><trkpt lat="45.4068517" lon="10.54272"><ele>139.0</ele><time>2026-04-08T09:43:39.451Z</time></trkpt><trkpt lat="45.4068467" lon="10.54283"><ele>139.0</ele><time>2026-04-08T09:43:41.444Z</time></trkpt><trkpt lat="45.406835" lon="10.5429283"><ele>139.0</ele><time>2026-04-08T09:43:43.45Z</time></trkpt><trkpt lat="45.4068383" lon="10.5430417"><ele>139.0</ele><time>2026-04-08T09:43:45.451Z</time></trkpt><trkpt lat="45.4068433" lon="10.5431583"><ele>137.0</ele><time>2026-04-08T09:43:47.451Z</time></trkpt><trkpt lat="45.4068567" lon="10.54326"><ele>135.0</ele><time>2026-04-08T09:43:49.443Z</time></trkpt><trkpt lat="45.4069083" lon="10.5433333"><ele>133.0</ele><time>2026-04-08T09:43:51.447Z</time></trkpt><trkpt lat="45.407005" lon="10.543365"><ele>131.0</ele><time>2026-04-08T09:43:53.453Z</time></trkpt><trkpt lat="45.4071183" lon="10.5433617"><ele>129.0</ele><time>2026-04-08T09:43:55.453Z</time></trkpt><trkpt lat="45.4072317" lon="10.543315"><ele>129.0</ele><time>2026-04-08T09:43:57.442Z</time></trkpt><trkpt lat="45.4072933" lon="10.543295"><ele>129.0</ele><time>2026-04-08T09:43:58.446Z</time></trkpt><trkpt lat="45.4073617" lon="10.543285"><ele>129.0</ele><time>2026-04-08T09:43:59.451Z</time></trkpt><trkpt lat="45.4074367" lon="10.5433033"><ele>129.0</ele><time>2026-04-08T09:44:00.453Z</time></trkpt><trkpt lat="45.4075283" lon="10.5433483"><ele>129.0</ele><time>2026-04-08T09:44:01.446Z</time></trkpt><trkpt lat="45.407615" lon="10.5433917"><ele>129.0</ele><time>2026-04-08T09:44:02.453Z</time></trkpt><trkpt lat="45.407705" lon="10.5434267"><ele>129.0</ele><time>2026-04-08T09:44:03.448Z</time></trkpt><trkpt lat="45.4077867" lon="10.5434367"><ele>129.0</ele><time>2026-04-08T09:44:04.452Z</time></trkpt><trkpt lat="45.4078717" lon="10.5434433"><ele>129.0</ele><time>2026-04-08T09:44:05.45Z</time></trkpt><trkpt lat="45.4079533" lon="10.54345"><ele>129.0</ele><time>2026-04-08T09:44:06.448Z</time></trkpt><trkpt lat="45.408025" lon="10.5434583"><ele>129.0</ele><time>2026-04-08T09:44:07.451Z</time></trkpt><trkpt lat="45.40809" lon="10.5434583"><ele>129.0</ele><time>2026-04-08T09:44:08.451Z</time></trkpt><trkpt lat="45.4081567" lon="10.543455"><ele>129.0</ele><time>2026-04-08T09:44:09.449Z</time></trkpt><trkpt lat="45.4082233" lon="10.54345"><ele>129.0</ele><time>2026-04-08T09:44:10.452Z</time></trkpt><trkpt lat="45.4082867" lon="10.5434483"><ele>129.0</ele><time>2026-04-08T09:44:11.453Z</time></trkpt><trkpt lat="45.4084033" lon="10.543445"><ele>129.0</ele><time>2026-04-08T09:44:13.453Z</time></trkpt><trkpt lat="45.4085083" lon="10.5434517"><ele>129.0</ele><time>2026-04-08T09:44:15.453Z</time></trkpt><trkpt lat="45.4085967" lon="10.5434533"><ele>129.0</ele><time>2026-04-08T09:44:17.452Z</time></trkpt><trkpt lat="45.40868" lon="10.5434433"><ele>129.0</ele><time>2026-04-08T09:44:19.453Z</time></trkpt><trkpt lat="45.4087517" lon="10.5434333"><ele>129.0</ele><time>2026-04-08T09:44:21.452Z</time></trkpt><trkpt lat="45.4088317" lon="10.5434167"><ele>129.0</ele><time>2026-04-08T09:44:24.452Z</time></trkpt><trkpt lat="45.4089233" lon="10.543385"><ele>129.0</ele><time>2026-04-08T09:44:27.447Z</time></trkpt><trkpt lat="45.408985" lon="10.5433633"><ele>129.0</ele><time>2026-04-08T09:44:29.443Z</time></trkpt><trkpt lat="45.4090583" lon="10.5433483"><ele>129.0</ele><time>2026-04-08T09:44:31.452Z</time></trkpt><trkpt lat="45.4091467" lon="10.543325"><ele>128.83333333333334</ele><time>2026-04-08T09:44:34.445Z</time></trkpt><trkpt lat="45.409215" lon="10.5433017"><ele>128.66666666666666</ele><time>2026-04-08T09:44:36.454Z</time></trkpt><trkpt lat="45.4092883" lon="10.5432733"><ele>128.5</ele><time>2026-04-08T09:44:38.452Z</time></trkpt><trkpt lat="45.4093533" lon="10.543245"><ele>128.33333333333331</ele><time>2026-04-08T09:44:40.451Z</time></trkpt><trkpt lat="45.4094233" lon="10.543215"><ele>128.16666666666666</ele><time>2026-04-08T09:44:42.454Z</time></trkpt><trkpt lat="45.409495" lon="10.543195"><ele>128.0</ele><time>2026-04-08T09:44:44.453Z</time></trkpt><trkpt lat="45.409585" lon="10.5431967"><ele>128.0</ele><time>2026-04-08T09:44:47.445Z</time></trkpt><trkpt lat="45.409655" lon="10.5431767"><ele>127.99999999999999</ele><time>2026-04-08T09:44:49.451Z</time></trkpt><trkpt lat="45.409735" lon="10.54315"><ele>128.0</ele><time>2026-04-08T09:44:51.453Z</time></trkpt><trkpt lat="45.4098017" lon="10.5431233"><ele>128.0</ele><time>2026-04-08T09:44:53.453Z</time></trkpt><trkpt lat="45.4098767" lon="10.5431"><ele>127.99999999999999</ele><time>2026-04-08T09:44:55.445Z</time></trkpt><trkpt lat="45.4099517" lon="10.5430767"><ele>128.0</ele><time>2026-04-08T09:44:57.452Z</time></trkpt><trkpt lat="45.4100217" lon="10.5430467"><ele>128.0</ele><time>2026-04-08T09:44:59.443Z</time></trkpt><trkpt lat="45.4100867" lon="10.5430133"><ele>127.83333333333333</ele><time>2026-04-08T09:45:01.451Z</time></trkpt><trkpt lat="45.4101617" lon="10.5429783"><ele>127.66666666666666</ele><time>2026-04-08T09:45:03.452Z</time></trkpt><trkpt lat="45.41023" lon="10.5429367"><ele>127.5</ele><time>2026-04-08T09:45:05.448Z</time></trkpt><trkpt lat="45.4103" lon="10.5428817"><ele>127.33333333333334</ele><time>2026-04-08T09:45:07.442Z</time></trkpt><trkpt lat="45.4103667" lon="10.54283"><ele>127.16666666666667</ele><time>2026-04-08T09:45:09.453Z</time></trkpt><trkpt lat="45.4104317" lon="10.5427817"><ele>127.0</ele><time>2026-04-08T09:45:11.444Z</time></trkpt><trkpt lat="45.4105167" lon="10.54274"><ele>128.71428571428572</ele><time>2026-04-08T09:45:14.454Z</time></trkpt><trkpt lat="45.41047" lon="10.5428117"><ele>130.42857142857142</ele><time>2026-04-08T09:45:34.453Z</time></trkpt><trkpt lat="45.410405" lon="10.5428433"><ele>132.14285714285714</ele><time>2026-04-08T09:45:36.444Z</time></trkpt><trkpt lat="45.41034" lon="10.5428417"><ele>133.85714285714286</ele><time>2026-04-08T09:45:38.445Z</time></trkpt><trkpt lat="45.41029" lon="10.5427733"><ele>135.57142857142858</ele><time>2026-04-08T09:45:42.443Z</time></trkpt><trkpt lat="45.4102733" lon="10.54266"><ele>137.28571428571428</ele><time>2026-04-08T09:45:46.443Z</time></trkpt><trkpt lat="45.4102867" lon="10.54256"><ele>139.0</ele><time>2026-04-08T09:45:49.444Z</time></trkpt><trkpt lat="45.4103217" lon="10.5424717"><ele>139.0</ele><time>2026-04-08T09:45:52.443Z</time></trkpt><trkpt lat="45.410365" lon="10.5423983"><ele>139.0</ele><time>2026-04-08T09:45:56.456Z</time></trkpt><trkpt lat="45.4103" lon="10.5423967"><ele>139.0</ele><time>2026-04-08T09:46:04.444Z</time></trkpt><trkpt lat="45.410325" lon="10.5422967"><ele>139.0</ele><time>2026-04-08T09:46:52.452Z</time></trkpt><trkpt lat="45.4104483" lon="10.54229"><ele>139.0</ele><time>2026-04-08T09:47:11.445Z</time></trkpt><trkpt lat="45.410505" lon="10.5423367"><ele>139.0</ele><time>2026-04-08T09:47:36.447Z</time></trkpt><trkpt lat="45.4105017" lon="10.5424333"><ele>139.0</ele><time>2026-04-08T09:47:54.451Z</time></trkpt><trkpt lat="45.41047" lon="10.5425383"><ele>139.0</ele><time>2026-04-08T09:47:58.45Z</time></trkpt><trkpt lat="45.4104183" lon="10.5426383"><ele>139.0</ele><time>2026-04-08T09:48:01.444Z</time></trkpt><trkpt lat="45.4103883" lon="10.542735"><ele>139.0</ele><time>2026-04-08T09:48:04.453Z</time></trkpt><trkpt lat="45.4104517" lon="10.5426917"><ele>139.0</ele><time>2026-04-08T09:48:10.449Z</time></trkpt><trkpt lat="45.4105117" lon="10.54266"><ele>139.0</ele><time>2026-04-08T09:48:13.447Z</time></trkpt><trkpt lat="45.4106033" lon="10.5426967"><ele>137.0</ele><time>2026-04-08T09:48:15.447Z</time></trkpt><trkpt lat="45.4106917" lon="10.5426467"><ele>135.0</ele><time>2026-04-08T09:48:17.447Z</time></trkpt><trkpt lat="45.410765" lon="10.542575"><ele>133.0</ele><time>2026-04-08T09:48:19.449Z</time></trkpt><trkpt lat="45.410825" lon="10.5425183"><ele>131.0</ele><time>2026-04-08T09:48:21.449Z</time></trkpt><trkpt lat="45.4109117" lon="10.54245"><ele>129.0</ele><time>2026-04-08T09:48:24.448Z</time></trkpt><trkpt lat="45.41098" lon="10.5424"><ele>127.0</ele><time>2026-04-08T09:48:26.456Z</time></trkpt><trkpt lat="45.41105" lon="10.5423317"><ele>127.0</ele><time>2026-04-08T09:48:28.452Z</time></trkpt><trkpt lat="45.4111083" lon="10.5422867"><ele>127.0</ele><time>2026-04-08T09:48:30.454Z</time></trkpt><trkpt lat="45.4111633" lon="10.5422383"><ele>127.0</ele><time>2026-04-08T09:48:32.446Z</time></trkpt><trkpt lat="45.4112183" lon="10.5421917"><ele>127.0</ele><time>2026-04-08T09:48:34.445Z</time></trkpt><trkpt lat="45.4112883" lon="10.5421367"><ele>127.0</ele><time>2026-04-08T09:48:36.454Z</time></trkpt><trkpt lat="45.4113417" lon="10.5420817"><ele>127.0</ele><time>2026-04-08T09:48:38.457Z</time></trkpt><trkpt lat="45.4113067" lon="10.54198"><ele>127.0</ele><time>2026-04-08T09:48:43.451Z</time></trkpt><trkpt lat="45.4112367" lon="10.5419233"><ele>128.33333333333334</ele><time>2026-04-08T09:48:46.445Z</time></trkpt><trkpt lat="45.4111867" lon="10.5418633"><ele>129.66666666666669</ele><time>2026-04-08T09:48:48.45Z</time></trkpt><trkpt lat="45.41114" lon="10.5417933"><ele>131.0</ele><time>2026-04-08T09:48:50.453Z</time></trkpt><trkpt lat="45.4110733" lon="10.541715"><ele>132.33333333333334</ele><time>2026-04-08T09:48:53.452Z</time></trkpt><trkpt lat="45.4110283" lon="10.541645"><ele>133.66666666666666</ele><time>2026-04-08T09:48:55.452Z</time></trkpt><trkpt lat="45.410995" lon="10.54153"><ele>135.0</ele><time>2026-04-08T09:48:58.453Z</time></trkpt><trkpt lat="45.411" lon="10.5414067"><ele>135.0</ele><time>2026-04-08T09:49:01.445Z</time></trkpt><trkpt lat="45.4110183" lon="10.5412833"><ele>135.0</ele><time>2026-04-08T09:49:04.447Z</time></trkpt><trkpt lat="45.4110567" lon="10.541175"><ele>135.0</ele><time>2026-04-08T09:49:08.453Z</time></trkpt><trkpt lat="45.4110983" lon="10.5410833"><ele>135.0</ele><time>2026-04-08T09:49:11.453Z</time></trkpt><trkpt lat="45.4111267" lon="10.5409817"><ele>135.0</ele><time>2026-04-08T09:49:14.45Z</time></trkpt><trkpt lat="45.4111" lon="10.54089"><ele>135.0</ele><time>2026-04-08T09:49:18.454Z</time></trkpt><trkpt lat="45.411035" lon="10.540855"><ele>136.0</ele><time>2026-04-08T09:49:23.447Z</time></trkpt><trkpt lat="45.4109717" lon="10.5408467"><ele>137.0</ele><time>2026-04-08T09:49:27.446Z</time></trkpt><trkpt lat="45.410885" lon="10.5408567"><ele>138.0</ele><time>2026-04-08T09:49:30.45Z</time></trkpt><trkpt lat="45.4108" lon="10.5408183"><ele>139.0</ele><time>2026-04-08T09:49:33.454Z</time></trkpt><trkpt lat="45.4107267" lon="10.5408083"><ele>140.0</ele><time>2026-04-08T09:49:36.453Z</time></trkpt><trkpt lat="45.4106483" lon="10.5408183"><ele>141.0</ele><time>2026-04-08T09:49:40.452Z</time></trkpt><trkpt lat="45.410585" lon="10.5408717"><ele>141.0</ele><time>2026-04-08T09:49:43.447Z</time></trkpt><trkpt lat="45.4105217" lon="10.54097"><ele>141.0</ele><time>2026-04-08T09:49:46.448Z</time></trkpt><trkpt lat="45.4104717" lon="10.5410783"><ele>141.0</ele><time>2026-04-08T09:49:49.449Z</time></trkpt><trkpt lat="45.4104417" lon="10.5411633"><ele>141.0</ele><time>2026-04-08T09:49:51.446Z</time></trkpt><trkpt lat="45.410425" lon="10.5412517"><ele>141.0</ele><time>2026-04-08T09:49:53.447Z</time></trkpt><trkpt lat="45.41041" lon="10.5413433"><ele>141.0</ele><time>2026-04-08T09:49:55.447Z</time></trkpt><trkpt lat="45.4103967" lon="10.541455"><ele>140.66666666666666</ele><time>2026-04-08T09:49:57.452Z</time></trkpt><trkpt lat="45.4103933" lon="10.541555"><ele>140.33333333333334</ele><time>2026-04-08T09:49:59.448Z</time></trkpt><trkpt lat="45.4103883" lon="10.5416517"><ele>140.0</ele><time>2026-04-08T09:50:01.45Z</time></trkpt><trkpt lat="45.4103767" lon="10.5417583"><ele>139.66666666666669</ele><time>2026-04-08T09:50:03.448Z</time></trkpt><trkpt lat="45.4103633" lon="10.541885"><ele>139.33333333333334</ele><time>2026-04-08T09:50:05.451Z</time></trkpt><trkpt lat="45.410305" lon="10.5420117"><ele>139.0</ele><time>2026-04-08T09:50:07.449Z</time></trkpt><trkpt lat="45.4102117" lon="10.5421117"><ele>139.0</ele><time>2026-04-08T09:50:09.449Z</time></trkpt><trkpt lat="45.410125" lon="10.54218"><ele>139.0</ele><time>2026-04-08T09:50:11.452Z</time></trkpt><trkpt lat="45.410045" lon="10.5422533"><ele>139.0</ele><time>2026-04-08T09:50:13.451Z</time></trkpt><trkpt lat="45.4099667" lon="10.5423117"><ele>139.0</ele><time>2026-04-08T09:50:15.447Z</time></trkpt><trkpt lat="45.4098867" lon="10.5423683"><ele>139.0</ele><time>2026-04-08T09:50:17.454Z</time></trkpt><trkpt lat="45.40982" lon="10.5424033"><ele>139.0</ele><time>2026-04-08T09:50:19.447Z</time></trkpt><trkpt lat="45.409725" lon="10.54244"><ele>139.85714285714286</ele><time>2026-04-08T09:50:22.451Z</time></trkpt><trkpt lat="45.40965" lon="10.5424517"><ele>140.71428571428572</ele><time>2026-04-08T09:50:24.452Z</time></trkpt><trkpt lat="45.4095783" lon="10.5424583"><ele>141.57142857142858</ele><time>2026-04-08T09:50:26.455Z</time></trkpt><trkpt lat="45.4095067" lon="10.54246"><ele>142.42857142857144</ele><time>2026-04-08T09:50:28.451Z</time></trkpt><trkpt lat="45.409435" lon="10.5424567"><ele>143.2857142857143</ele><time>2026-04-08T09:50:30.448Z</time></trkpt><trkpt lat="45.4093717" lon="10.5424517"><ele>144.14285714285714</ele><time>2026-04-08T09:50:32.453Z</time></trkpt><trkpt lat="45.4093067" lon="10.5424333"><ele>145.0</ele><time>2026-04-08T09:50:34.45Z</time></trkpt><trkpt lat="45.4092283" lon="10.5423817"><ele>145.0</ele><time>2026-04-08T09:50:37.442Z</time></trkpt><trkpt lat="45.409155" lon="10.542325"><ele>145.0</ele><time>2026-04-08T09:50:40.442Z</time></trkpt><trkpt lat="45.4090967" lon="10.5422883"><ele>145.0</ele><time>2026-04-08T09:50:42.451Z</time></trkpt><trkpt lat="45.409015" lon="10.542225"><ele>145.0</ele><time>2026-04-08T09:50:45.456Z</time></trkpt><trkpt lat="45.408945" lon="10.5421683"><ele>145.0</ele><time>2026-04-08T09:50:48.446Z</time></trkpt><trkpt lat="45.40887" lon="10.5421333"><ele>145.0</ele><time>2026-04-08T09:50:51.445Z</time></trkpt><trkpt lat="45.408775" lon="10.5420967"><ele>145.33333333333334</ele><time>2026-04-08T09:51:08.444Z</time></trkpt><trkpt lat="45.408725" lon="10.54218"><ele>145.66666666666669</ele><time>2026-04-08T09:51:12.444Z</time></trkpt><trkpt lat="45.4086783" lon="10.5422617"><ele>146.0</ele><time>2026-04-08T09:51:16.449Z</time></trkpt><trkpt lat="45.4087" lon="10.5421517"><ele>146.33333333333334</ele><time>2026-04-08T09:51:55.451Z</time></trkpt><trkpt lat="45.4087333" lon="10.542045"><ele>146.66666666666666</ele><time>2026-04-08T09:51:59.451Z</time></trkpt><trkpt lat="45.4087567" lon="10.5419467"><ele>147.0</ele><time>2026-04-08T09:52:02.456Z</time></trkpt><trkpt lat="45.4088033" lon="10.541845"><ele>147.16666666666666</ele><time>2026-04-08T09:52:05.452Z</time></trkpt><trkpt lat="45.408855" lon="10.5417367"><ele>147.33333333333334</ele><time>2026-04-08T09:52:08.452Z</time></trkpt><trkpt lat="45.4089033" lon="10.541635"><ele>147.5</ele><time>2026-04-08T09:52:11.446Z</time></trkpt><trkpt lat="45.4089333" lon="10.5415217"><ele>147.66666666666669</ele><time>2026-04-08T09:52:14.455Z</time></trkpt><trkpt lat="45.4089567" lon="10.5414317"><ele>147.83333333333334</ele><time>2026-04-08T09:52:16.45Z</time></trkpt><trkpt lat="45.4089867" lon="10.5413467"><ele>148.0</ele><time>2026-04-08T09:52:18.453Z</time></trkpt><trkpt lat="45.4090183" lon="10.5412633"><ele>147.5</ele><time>2026-04-08T09:52:20.454Z</time></trkpt><trkpt lat="45.4090567" lon="10.54119"><ele>147.0</ele><time>2026-04-08T09:52:22.444Z</time></trkpt><trkpt lat="45.4091233" lon="10.5410983"><ele>146.5</ele><time>2026-04-08T09:52:25.452Z</time></trkpt><trkpt lat="45.4091967" lon="10.5410133"><ele>146.0</ele><time>2026-04-08T09:52:28.446Z</time></trkpt><trkpt lat="45.4092583" lon="10.5409633"><ele>145.5</ele><time>2026-04-08T09:52:30.444Z</time></trkpt><trkpt lat="45.409315" lon="10.54091"><ele>145.0</ele><time>2026-04-08T09:52:32.454Z</time></trkpt><trkpt lat="45.4093667" lon="10.5408333"><ele>145.0</ele><time>2026-04-08T09:52:34.447Z</time></trkpt><trkpt lat="45.4094133" lon="10.540755"><ele>145.0</ele><time>2026-04-08T09:52:36.446Z</time></trkpt><trkpt lat="45.4094683" lon="10.5406683"><ele>145.0</ele><time>2026-04-08T09:52:38.45Z</time></trkpt><trkpt lat="45.4095283" lon="10.5405833"><ele>145.0</ele><time>2026-04-08T09:52:40.451Z</time></trkpt><trkpt lat="45.4095833" lon="10.5404883"><ele>145.0</ele><time>2026-04-08T09:52:42.452Z</time></trkpt><trkpt lat="45.4096183" lon="10.5403833"><ele>145.0</ele><time>2026-04-08T09:52:44.445Z</time></trkpt><trkpt lat="45.4096217" lon="10.540255"><ele>142.6</ele><time>2026-04-08T09:52:46.451Z</time></trkpt><trkpt lat="45.4096067" lon="10.5400983"><ele>140.2</ele><time>2026-04-08T09:52:48.454Z</time></trkpt><trkpt lat="45.4095867" lon="10.5399367"><ele>137.8</ele><time>2026-04-08T09:52:50.458Z</time></trkpt><trkpt lat="45.4095633" lon="10.5397767"><ele>135.4</ele><time>2026-04-08T09:52:52.449Z</time></trkpt><trkpt lat="45.4095383" lon="10.5396267"><ele>133.0</ele><time>2026-04-08T09:52:54.452Z</time></trkpt><trkpt lat="45.4095183" lon="10.5394833"><ele>132.33333333333334</ele><time>2026-04-08T09:52:56.454Z</time></trkpt><trkpt lat="45.4095083" lon="10.5393533"><ele>131.66666666666669</ele><time>2026-04-08T09:52:58.446Z</time></trkpt><trkpt lat="45.4094983" lon="10.5392417"><ele>131.0</ele><time>2026-04-08T09:53:00.446Z</time></trkpt><trkpt lat="45.40947" lon="10.5391367"><ele>130.33333333333334</ele><time>2026-04-08T09:53:03.449Z</time></trkpt><trkpt lat="45.409405" lon="10.5391317"><ele>129.66666666666666</ele><time>2026-04-08T09:53:05.446Z</time></trkpt><trkpt lat="45.4093133" lon="10.5391333"><ele>129.0</ele><time>2026-04-08T09:53:07.447Z</time></trkpt><trkpt lat="45.4092017" lon="10.5391083"><ele>129.0</ele><time>2026-04-08T09:53:09.453Z</time></trkpt><trkpt lat="45.40908" lon="10.539065"><ele>129.0</ele><time>2026-04-08T09:53:11.452Z</time></trkpt><trkpt lat="45.4090183" lon="10.53904"><ele>129.0</ele><time>2026-04-08T09:53:12.454Z</time></trkpt><trkpt lat="45.408905" lon="10.5390183"><ele>129.0</ele><time>2026-04-08T09:53:14.457Z</time></trkpt><trkpt lat="45.4088167" lon="10.5390533"><ele>129.0</ele><time>2026-04-08T09:53:16.446Z</time></trkpt><trkpt lat="45.4087733" lon="10.53919"><ele>131.0</ele><time>2026-04-08T09:53:53.443Z</time></trkpt><trkpt lat="45.4087183" lon="10.539245"><ele>133.0</ele><time>2026-04-08T09:53:58.446Z</time></trkpt><trkpt lat="45.40914" lon="10.5400083"><ele>133.0</ele><time>2026-04-08T09:57:15.447Z</time></trkpt><trkpt lat="45.4092567" lon="10.5400767"><ele>133.0</ele><time>2026-04-08T09:57:17.446Z</time></trkpt><trkpt lat="45.4093533" lon="10.5401383"><ele>133.0</ele><time>2026-04-08T09:57:18.443Z</time></trkpt><trkpt lat="45.409425" lon="10.5401933"><ele>133.0</ele><time>2026-04-08T09:57:19.442Z</time></trkpt><trkpt lat="45.409585" lon="10.5402483"><ele>133.0</ele><time>2026-04-08T09:57:21.447Z</time></trkpt><trkpt lat="45.4096467" lon="10.5402717"><ele>133.0</ele><time>2026-04-08T09:57:22.451Z</time></trkpt><trkpt lat="45.409685" lon="10.5401967"><ele>137.0</ele><time>2026-04-08T09:57:27.43Z</time></trkpt><trkpt lat="45.4096128" lon="10.5400878"><ele>133.0</ele><time>2026-04-08T09:57:29.437Z</time></trkpt></trkseg></trk></gpx>